N4SRN-13 Weather Reports


Display with metric or nautical units.
time (UTC)temp
F
wind
direction
speed
MPH
gust
MPH
rain 1hr
in
rain 24hr
in
rain mn
in
humidity
%
barometer
mb
20230201025757 19 293 0.0 1.0 0.00 0.00 0.00 51 1024.4
20230201025656 19 293 0.0 1.0 0.00 0.00 0.00 52 1024.4
20230201025556 19 302 0.0 1.0 0.00 0.00 0.00 51 1024.3
20230201025459 19 302 0.0 1.0 0.00 0.00 0.00 53 1024.4
20230201025356 19 129 0.0 0.0 0.00 0.00 0.00 55 1024.3
20230201025256 19 129 0.0 0.0 0.00 0.00 0.00 55 1024.3
20230201025157 19 128 0.0 0.0 0.00 0.00 0.00 55 1024.2
20230201025126 19 129 0.0 0.0 0.00 0.00 0.00 56 1024.2
20230201025116 19 128 0.0 0.0 0.00 0.00 0.00 55 1024.2
20230201024958 19 129 0.0 0.0 0.00 0.00 0.00 56 1024.2
20230201024856 19 128 0.0 1.0 0.00 0.00 0.00 56 1024.2
20230201024759 19 129 0.0 1.0 0.00 0.00 0.00 55 1024.3
20230201024732 19 129 0.0 1.0 0.00 0.00 0.00 56 1024.2
20230201024656 19 129 0.0 1.0 0.00 0.00 0.00 55 1024.3
20230201024617 19 129 0.0 1.0 0.00 0.00 0.00 56 1024.3
20230201024604 19 129 0.0 1.0 0.00 0.00 0.00 56 1024.2
20230201024427 19 129 0.0 1.0 0.00 0.00 0.00 56 1024.2
20230201024306 19 128 0.0 1.0 0.00 0.00 0.00 56 1024.2
20230201024124 19 128 0.0 1.0 0.00 0.00 0.00 56 1024.1
20230201024115 19 129 0.0 1.0 0.00 0.00 0.00 55 1024.1
20230201023955 19 128 0.0 1.0 0.00 0.00 0.00 56 1024.1
20230201023853 19 232 0.0 0.0 0.00 0.00 0.00 56 1024.1
20230201023822 19 233 0.0 0.0 0.00 0.00 0.00 55 1024.0
20230201023812 19 232 0.0 0.0 0.00 0.00 0.00 56 1024.0
20230201023650 19 232 0.0 0.0 0.00 0.00 0.00 53 1024.1
20230201023643 19 232 0.0 0.0 0.00 0.00 0.00 55 1024.1
20230201023629 19 232 0.0 0.0 0.00 0.00 0.00 54 1024.1
20230201023510 19 232 0.0 0.0 0.00 0.00 0.00 53 1024.1
20230201023325 19 232 0.0 0.0 0.00 0.00 0.00 55 1024.1
20230201023321 19 232 0.0 0.0 0.00 0.00 0.00 55 1024.1
20230201023310 19 233 0.0 0.0 0.00 0.00 0.00 56 1024.1
20230201023114 19 232 0.0 0.0 0.00 0.00 0.00 55 1024.1
20230201023059 19 232 0.0 0.0 0.00 0.00 0.00 55 1024.1
20230201022854 19 232 0.0 0.0 0.00 0.00 0.00 56 1024.0
20230201022754 19 232 0.0 0.0 0.00 0.00 0.00 56 1024.0
20230201022653 19 232 0.0 0.0 0.00 0.00 0.00 56 1024.1
20230201022554 19 233 0.0 1.0 0.00 0.00 0.00 57 1024.0
20230201022517 19 232 0.0 1.0 0.00 0.00 0.00 57 1024.1
20230201022509 19 232 0.0 1.0 0.00 0.00 0.00 57 1024.0
20230201022502 19 232 0.0 1.0 0.00 0.00 0.00 56 1024.0
20230201022248 19 232 0.0 1.0 0.00 0.00 0.00 57 1024.0
20230201022148 19 232 0.0 1.0 0.00 0.00 0.00 56 1024.0
20230201022048 19 232 0.0 1.0 0.00 0.00 0.00 55 1023.9
20230201021948 19 232 0.0 2.0 0.00 0.00 0.00 55 1023.9
20230201021848 19 232 0.0 2.0 0.00 0.00 0.00 55 1023.9
20230201021748 19 233 0.0 2.0 0.00 0.00 0.00 54 1023.8
20230201021648 19 232 0.0 2.0 0.00 0.00 0.00 54 1023.8
20230201021548 19 319 0.0 2.0 0.00 0.00 0.00 55 1023.7
20230201021448 19 318 0.0 2.0 0.00 0.00 0.00 53 1023.7
20230201021348 19 318 0.0 2.0 0.00 0.00 0.00 53 1023.7
20230201021248 19 318 0.0 2.0 0.00 0.00 0.00 52 1023.7
20230201021228 19 269 0.0 2.0 0.00 0.00 0.00 53 1023.8
20230201021148 19 318 0.0 2.0 0.00 0.00 0.00 51 1023.7
20230201021110 19 318 0.0 2.0 0.00 0.00 0.00 52 1023.8
20230201020949 19 269 0.0 2.0 0.00 0.00 0.00 53 1023.8
20230201020938 19 245 0.0 2.0 0.00 0.00 0.00 54 1023.7
20230201020930 19 23 0.0 3.0 0.00 0.00 0.00 55 1023.7
20230201020919 19 243 0.0 2.0 0.00 0.00 0.00 53 1023.7
20230201020544 19 23 0.0 3.0 0.00 0.00 0.00 54 1023.7
20230201020515 19 23 0.0 3.0 0.00 0.00 0.00 51 1023.6
20230201020459 19 23 0.0 3.0 0.00 0.00 0.00 53 1023.6
20230201020246 19 22 0.0 3.0 0.00 0.00 0.00 51 1023.6
20230201020145 19 21 0.0 3.0 0.00 0.00 0.00 51 1023.7
20230201020045 19 22 0.0 3.0 0.00 0.00 0.00 51 1023.7
20230201015946 19 23 0.0 3.0 0.00 0.00 0.00 51 1023.7
20230201015844 19 23 0.0 3.0 0.00 0.00 0.00 51 1023.7
20230201015744 19 21 0.0 3.0 0.00 0.00 0.00 51 1023.7
20230201015645 19 291 0.0 2.0 0.00 0.00 0.00 51 1023.6
20230201015546 20 294 0.0 2.0 0.00 0.00 0.00 51 1023.6
20230201015445 20 294 0.0 2.0 0.00 0.00 0.00 51 1023.6
20230201015344 20 294 0.0 2.0 0.00 0.00 0.00 51 1023.6
20230201015245 20 294 0.0 2.0 0.00 0.00 0.00 51 1023.5
20230201015224 20 257 0.0 2.0 0.00 0.00 0.00 51 1023.5
20230201015144 20 294 0.0 2.0 0.00 0.00 0.00 50 1023.5
20230201015104 20 294 0.0 2.0 0.00 0.00 0.00 50 1023.6
20230201014944 20 252 0.0 2.0 0.00 0.00 0.00 51 1023.5
20230201014845 20 344 0.0 2.0 0.00 0.00 0.00 52 1023.5
20230201014802 20 34 0.0 6.0 0.00 0.00 0.00 50 1023.4
20230201014756 20 34 0.0 3.0 0.00 0.00 0.00 52 1023.5
20230201014540 20 34 0.0 6.0 0.00 0.00 0.00 50 1023.5
20230201014441 20 34 0.0 6.0 0.00 0.00 0.00 50 1023.5
20230201014340 20 34 0.0 6.0 0.00 0.00 0.00 50 1023.5
20230201014241 20 36 0.0 6.0 0.00 0.00 0.00 51 1023.5
20230201014140 20 300 0.0 6.0 0.00 0.00 0.00 53 1023.5
20230201014101 20 300 0.0 6.0 0.00 0.00 0.00 52 1023.5
20230201014046 20 300 0.0 6.0 0.00 0.00 0.00 50 1023.5
20230201013842 20 300 0.0 6.0 0.00 0.00 0.00 52 1023.5
20230201013742 20 312 0.0 6.0 0.00 0.00 0.00 55 1023.5
20230201013721 20 278 0.0 2.0 0.00 0.00 0.00 54 1023.6
20230201013640 20 278 0.0 2.0 0.00 0.00 0.00 56 1023.5
20230201013603 20 278 0.0 2.0 0.00 0.00 0.00 55 1023.6
20230201013442 20 278 0.0 2.0 0.00 0.00 0.00 54 1023.6
20230201013341 20 278 0.0 2.0 0.00 0.00 0.00 54 1023.6
20230201013240 20 278 0.0 2.0 0.00 0.00 0.00 53 1023.5
20230201013140 20 278 0.0 2.0 0.00 0.00 0.00 51 1023.5
20230201013040 20 278 0.0 2.0 0.00 0.00 0.00 51 1023.5
20230201012940 20 278 0.0 2.0 0.00 0.00 0.00 52 1023.4
20230201012843 20 284 0.0 1.0 0.00 0.00 0.00 53 1023.4
20230201012737 20 243 0.0 1.0 0.00 0.00 0.00 52 1023.4
20230201012655 20 105 0.0 1.0 0.00 0.00 0.00 55 1023.3
20230201012646 20 243 0.0 1.0 0.00 0.00 0.00 51 1023.4
20230201012633 20 294 0.0 1.0 0.00 0.00 0.00 52 1023.4
20230201012518 20 212 0.0 1.0 0.00 0.00 0.00 54 1023.2
20230201012512 20 101 0.0 1.0 0.00 0.00 0.00 55 1023.2
20230201012503 20 108 0.0 1.0 0.00 0.00 0.00 52 1023.3
20230201012456 20 107 0.0 1.0 0.00 0.00 0.00 52 1023.3
20230201012442 20 106 0.0 1.0 0.00 0.00 0.00 53 1023.3
20230201011937 20 102 0.0 1.0 0.00 0.00 0.00 55 1023.2
20230201011837 20 101 0.0 1.0 0.00 0.00 0.00 55 1023.2
20230201011800 20 101 0.0 1.0 0.00 0.00 0.00 55 1023.1
20230201011751 20 101 0.0 1.0 0.00 0.00 0.00 55 1023.2
20230201011606 20 102 0.0 1.0 0.00 0.00 0.00 56 1023.1
20230201011556 20 101 0.0 1.0 0.00 0.00 0.00 55 1023.1
20230201011544 20 101 0.0 1.0 0.00 0.00 0.00 56 1023.1
20230201011336 20 101 0.0 1.0 0.00 0.00 0.00 56 1023.1
20230201011259 20 101 0.0 1.0 0.00 0.00 0.00 55 1023.1
20230201011251 20 102 0.0 1.0 0.00 0.00 0.00 56 1023.1
20230201011100 20 101 0.0 1.0 0.00 0.00 0.00 55 1023.1
20230201011046 20 101 0.0 4.0 0.00 0.00 0.00 55 1023.1
20230201010855 20 101 0.0 4.0 0.00 0.00 0.00 54 1023.0
20230201010847 20 101 0.0 4.0 0.00 0.00 0.00 53 1023.0
20230201010639 20 105 0.0 4.0 0.00 0.00 0.00 52 1023.1
20230201010535 20 103 0.0 4.0 0.00 0.00 0.00 52 1023.0
20230201010445 20 105 0.0 4.0 0.00 0.00 0.00 53 1023.0
20230201010433 20 104 0.0 4.0 0.00 0.00 0.00 53 1023.0
20230201010334 20 103 0.0 4.0 0.00 0.00 0.00 53 1023.0
20230201010236 20 103 0.0 4.0 0.00 0.00 0.00 52 1023.0
20230201010133 20 288 0.0 4.0 0.00 0.00 0.00 51 1022.9
20230201010033 20 291 0.0 4.0 0.00 0.00 0.00 52 1022.9
20230201005943 20 300 0.0 1.0 0.00 0.00 0.00 52 1022.9
20230201005934 20 280 0.0 1.0 0.00 0.00 0.00 54 1022.9
20230201005834 21 251 0.0 1.0 0.00 0.00 0.00 55 1022.9
20230201005735 21 340 0.0 1.0 0.00 0.00 0.00 55 1022.9
20230201005635 21 340 0.0 1.0 0.00 0.00 0.00 55 1022.9
20230201005536 21 342 0.0 1.0 0.00 0.00 0.00 56 1023.0
20230201005434 21 342 0.0 1.0 0.00 0.00 0.00 56 1023.0
20230201005334 21 342 0.0 1.0 0.00 0.00 0.00 57 1023.0
20230201005235 21 341 0.0 1.0 0.00 0.00 0.00 57 1023.0
20230201005158 21 342 0.0 1.0 0.00 0.00 0.00 59 1023.0
20230201005149 21 341 0.0 1.0 0.00 0.00 0.00 58 1023.0
20230201005017 21 338 0.0 1.0 0.00 0.00 0.00 58 1023.0
20230201005007 21 338 0.0 1.0 0.00 0.00 0.00 58 1023.0
20230201004958 21 339 0.0 1.0 0.00 0.00 0.00 58 1023.0
20230201004831 21 339 0.0 1.0 0.00 0.00 0.00 58 1023.0
20230201004628 21 339 0.0 1.0 0.00 0.00 0.00 59 1023.1
20230201004616 21 297 0.0 1.0 0.00 0.00 0.00 57 1023.0
20230201004604 21 338 0.0 1.0 0.00 0.00 0.00 59 1023.0
20230201004443 21 339 0.0 1.0 0.00 0.00 0.00 58 1023.0
20230201004228 21 297 0.0 1.0 0.00 0.00 0.00 56 1023.0
20230201004130 21 297 0.0 1.0 0.00 0.00 0.00 55 1023.1
20230201004028 21 296 0.0 1.0 0.00 0.00 0.00 53 1023.0
20230201003928 21 297 0.0 1.0 0.00 0.00 0.00 51 1023.1
20230201003828 21 296 0.0 1.0 0.00 0.00 0.00 51 1023.0
20230201003728 21 297 0.0 1.0 0.00 0.00 0.00 50 1023.0
20230201003652 21 79 0.0 1.0 0.00 0.00 0.00 51 1023.0
20230201003642 21 79 0.0 1.0 0.00 0.00 0.00 50 1023.0
20230201003443 21 321 0.0 3.0 0.00 0.00 0.00 51 1023.1
20230201003428 21 218 0.0 3.0 0.00 0.00 0.00 53 1023.1
20230201003354 21 269 0.0 3.0 0.00 0.00 0.00 52 1023.0
20230201003342 21 269 0.0 3.0 0.00 0.00 0.00 53 1023.0
20230201003130 21 218 0.0 3.0 0.00 0.00 0.00 52 1023.0
20230201003024 21 219 0.0 4.0 0.00 0.00 0.00 51 1023.0
20230201002925 21 276 0.0 4.0 0.00 0.00 0.00 51 1022.9
20230201002827 21 287 0.0 4.0 0.00 0.00 0.00 53 1023.0
20230201002726 22 297 0.0 4.0 0.00 0.00 0.00 51 1022.9
20230201002624 22 296 0.0 4.0 0.00 0.00 0.00 51 1022.9
20230201002526 22 297 0.0 4.0 0.00 0.00 0.00 52 1022.8
20230201002439 22 282 0.0 4.0 0.00 0.00 0.00 53 1022.8
20230201002426 22 285 0.0 4.0 0.00 0.00 0.00 53 1022.8
20230201002324 22 267 0.0 4.0 0.00 0.00 0.00 54 1022.8
20230201002224 22 0 0.0 4.0 0.00 0.00 0.00 54 1022.9
20230201002126 22 0 0.0 4.0 0.00 0.00 0.00 53 1022.8
20230201002026 22 305 0.0 2.0 0.00 0.00 0.00 55 1022.8
20230201001938 22 17 0.0 1.0 0.00 0.00 0.00 57 1022.8
20230201001925 22 18 0.0 1.0 0.00 0.00 0.00 57 1022.8
20230201001826 22 18 0.0 1.0 0.00 0.00 0.00 56 1022.8
20230201001726 22 60 0.0 1.0 0.00 0.00 0.00 55 1022.8
20230201001626 22 276 0.0 1.0 0.00 0.00 0.00 55 1022.9
20230201001552 22 291 0.0 2.0 0.00 0.00 0.00 56 1022.9
20230201001542 22 276 0.0 1.0 0.00 0.00 0.00 55 1022.8
20230201001524 22 291 0.0 1.0 0.00 0.00 0.00 56 1022.9
20230201001253 22 291 0.0 3.0 0.00 0.00 0.00 52 1022.4
20230201001244 22 291 0.0 2.0 0.00 0.00 0.00 55 1022.9
20230201001123 22 291 0.0 2.0 0.00 0.00 0.00 53 1022.8
20230201001106 22 291 0.0 2.0 0.00 0.00 0.00 52 1022.7
20230201000946 22 291 0.0 2.0 0.00 0.00 0.00 52 1022.5
20230201000825 22 291 0.0 3.0 0.00 0.00 0.00 52 1022.5
20230201000811 22 290 0.0 3.0 0.00 0.00 0.00 53 1022.5
20230201000641 22 291 0.0 3.0 0.00 0.00 0.00 51 1022.3
20230201000320 22 73 0.0 3.0 0.00 0.00 0.00 54 1022.3
20230201000221 22 281 0.0 3.0 0.00 0.00 0.00 54 1022.3
20230201000122 22 281 0.0 3.0 0.00 0.00 0.00 54 1022.2
20230201000023 22 333 0.0 3.0 0.00 0.00 0.00 54 1022.2
20230131235939 22 333 0.0 3.0 0.00 0.00 0.00 55 1022.2
20230131235920 22 333 0.0 5.0 0.00 0.00 0.00 55 1022.2
20230131235854 22 276 0.0 5.0 0.00 0.00 0.00 55 1022.4
20230131235734 22 276 0.0 5.0 0.00 0.00 0.00 54 1022.3
20230131235520 22 280 0.0 5.0 0.00 0.00 0.00 56 1022.4
20230131235420 22 280 0.0 5.0 0.00 0.00 0.00 55 1022.4
20230131235341 22 279 0.0 5.0 0.00 0.00 0.00 53 1022.4
20230131235332 22 280 0.0 5.0 0.00 0.00 0.00 54 1022.4
20230131235117 22 300 0.0 5.0 0.00 0.00 0.00 53 1022.4
20230131235016 22 300 0.0 5.0 0.00 0.00 0.00 54 1022.4
20230131234939 22 300 0.0 5.0 0.00 0.00 0.00 54 1022.4
20230131234917 22 336 0.0 4.0 0.00 0.00 0.00 54 1022.4
20230131234816 22 319 0.0 4.0 0.00 0.00 0.00 54 1022.4
20230131234717 22 333 0.0 4.0 0.00 0.00 0.00 55 1022.4
20230131234616 22 276 0.0 4.0 0.00 0.00 0.00 55 1022.4
20230131234516 22 276 0.0 4.0 0.00 0.00 0.00 55 1022.4
20230131234440 22 276 0.0 4.0 0.00 0.00 0.00 55 1022.4
20230131234417 22 274 0.0 4.0 0.00 0.00 0.00 55 1022.4
20230131234316 22 274 0.0 4.0 0.00 0.00 0.00 55 1022.4
20230131234301 22 274 1.0 4.0 0.00 0.00 0.00 54 1022.4
20230131234256 22 283 1.0 4.0 0.00 0.00 0.00 53 1022.4
20230131234245 22 274 0.0 4.0 0.00 0.00 0.00 54 1022.4
20230131233951 22 186 0.0 4.0 0.00 0.00 0.00 55 1022.4
20230131233940 22 41 0.0 4.0 0.00 0.00 0.00 54 1022.4
20230131233931 22 66 0.0 4.0 0.00 0.00 0.00 54 1022.4
20230131233749 23 308 0.0 4.0 0.00 0.00 0.00 55 1022.4
20230131233629 22 307 0.0 4.0 0.00 0.00 0.00 54 1022.4
20230131233436 22 307 1.0 4.0 0.00 0.00 0.00 52 1022.4
20230131233417 22 308 1.0 4.0 0.00 0.00 0.00 52 1022.4
20230131233313 22 300 0.0 4.0 0.00 0.00 0.00 52 1022.5
20230131233238 22 297 0.0 4.0 0.00 0.00 0.00 54 1022.5
20230131233230 22 280 0.0 4.0 0.00 0.00 0.00 53 1022.5
20230131233016 22 315 0.0 4.0 0.00 0.00 0.00 54 1022.5
20230131232946 22 315 0.0 4.0 0.00 0.00 0.00 54 1022.5
20230131232937 22 314 0.0 4.0 0.00 0.00 0.00 54 1022.5
20230131232928 22 315 0.0 4.0 0.00 0.00 0.00 54 1022.5
20230131232714 22 315 0.0 4.0 0.00 0.00 0.00 54 1022.5
20230131232613 22 277 0.0 4.0 0.00 0.00 0.00 53 1022.4
20230131232513 22 277 0.0 4.0 0.00 0.00 0.00 54 1022.5
20230131232415 22 291 0.0 4.0 0.00 0.00 0.00 55 1022.4
20230131232313 22 218 0.0 2.0 0.00 0.00 0.00 54 1022.4
20230131232213 23 246 0.0 4.0 0.00 0.00 0.00 55 1022.3
20230131232114 22 297 0.0 4.0 0.00 0.00 0.00 54 1022.3
20230131232013 22 296 0.0 4.0 0.00 0.00 0.00 55 1022.3
20230131231914 22 297 0.0 4.0 0.00 0.00 0.00 55 1022.3
20230131231837 22 302 0.0 4.0 0.00 0.00 0.00 55 1022.3
20230131231828 22 139 0.0 4.0 0.00 0.00 0.00 55 1022.2
20230131231615 22 305 0.0 4.0 0.00 0.00 0.00 54 1022.3
20230131231513 22 305 0.0 4.0 0.00 0.00 0.00 53 1022.3
20230131231435 22 305 0.0 4.0 0.00 0.00 0.00 53 1022.3
20230131231408 22 296 0.0 4.0 0.00 0.00 0.00 53 1022.3
20230131231332 22 302 0.0 3.0 0.00 0.00 0.00 55 1022.4
20230131231323 22 296 0.0 4.0 0.00 0.00 0.00 54 1022.3
20230131231307 22 44 0.0 3.0 0.00 0.00 0.00 55 1022.4
20230131231031 22 305 0.0 3.0 0.00 0.00 0.00 55 1022.4
20230131231019 22 304 0.0 3.0 0.00 0.00 0.00 55 1022.4
20230131230809 22 181 0.0 3.0 0.00 0.00 0.00 59 1022.5
20230131230709 22 283 0.0 3.0 0.00 0.00 0.00 61 1022.5
20230131230647 23 283 0.0 3.0 0.00 0.00 0.00 60 1022.5
20230131230528 22 283 0.0 3.0 0.00 0.00 0.00 58 1022.4
20230131230517 22 282 0.0 3.0 0.00 0.00 0.00 56 1022.4
20230131230308 23 283 0.0 3.0 0.00 0.00 0.00 56 1022.5
20230131230223 23 297 0.0 0.0 0.00 0.00 0.00 58 1022.5
20230131230208 23 283 0.0 2.0 0.00 0.00 0.00 57 1022.5
20230131230119 23 234 0.0 1.0 0.00 0.00 0.00 58 1022.5
20230131230105 23 297 0.0 0.0 0.00 0.00 0.00 57 1022.5
20230131225945 23 296 0.0 0.0 0.00 0.00 0.00 58 1022.5
20230131225824 23 297 0.0 0.0 0.00 0.00 0.00 57 1022.5
20230131225811 23 297 0.0 0.0 0.00 0.00 0.00 56 1022.4
20230131225656 23 294 0.0 5.0 0.00 0.00 0.00 54 1022.3
20230131225644 23 297 0.0 0.0 0.00 0.00 0.00 55 1022.4
20230131225629 23 296 0.0 1.0 0.00 0.00 0.00 56 1022.4
20230131225618 23 297 0.0 1.0 0.00 0.00 0.00 56 1022.4
20230131225346 23 294 0.0 3.0 0.00 0.00 0.00 57 1022.3
20230131224934 23 294 0.0 5.0 0.00 0.00 0.00 53 1022.3
20230131224904 23 294 0.0 5.0 0.00 0.00 0.00 53 1022.3
20230131224804 23 294 0.0 5.0 0.00 0.00 0.00 54 1022.2
20230131224705 23 294 0.0 5.0 0.00 0.00 0.00 53 1022.2
20230131224604 23 294 0.0 5.0 0.00 0.00 0.00 53 1022.2
20230131224506 23 296 0.0 5.0 0.00 0.00 0.00 53 1022.2
20230131224404 23 300 0.0 5.0 0.00 0.00 0.00 53 1022.1
20230131224306 23 307 0.0 5.0 0.00 0.00 0.00 53 1022.2
20230131224204 23 296 0.0 5.0 0.00 0.00 0.00 55 1022.1
20230131224106 23 315 0.0 5.0 0.00 0.00 0.00 55 1022.0
20230131224006 23 96 0.0 5.0 0.00 0.00 0.00 55 1022.0
20230131223926 23 97 0.0 5.0 0.00 0.00 0.00 56 1022.0
20230131223918 23 96 0.0 5.0 0.00 0.00 0.00 55 1022.0
20230131223704 23 98 0.0 5.0 0.00 0.00 0.00 56 1021.9
20230131223624 23 96 0.0 5.0 0.00 0.00 0.00 55 1021.9
20230131223614 23 97 0.0 5.0 0.00 0.00 0.00 56 1021.9
20230131223432 23 97 0.0 5.0 0.00 0.00 0.00 56 1021.8
20230131223402 23 69 0.0 5.0 0.00 0.00 0.00 56 1021.8
20230131223302 23 285 0.0 2.0 0.00 0.00 0.00 56 1021.9
20230131223207 23 302 0.0 3.0 0.00 0.00 0.00 57 1021.8
20230131223200 23 285 0.0 3.0 0.00 0.00 0.00 56 1021.9
20230131223103 23 285 0.0 3.0 0.00 0.00 0.00 57 1021.8
20230131223044 23 302 0.0 3.0 0.00 0.00 0.00 57 1021.8
20230131222902 23 302 0.0 3.0 0.00 0.00 0.00 57 1021.8
20230131222800 23 302 0.0 3.0 0.00 0.00 0.00 56 1021.8
20230131222702 24 300 0.0 3.0 0.00 0.00 0.00 57 1021.9
20230131222601 24 302 0.0 3.0 0.00 0.00 0.00 56 1021.8
20230131222500 24 302 0.0 3.0 0.00 0.00 0.00 55 1021.9
20230131222431 24 302 0.0 3.0 0.00 0.00 0.00 56 1021.9
20230131222402 24 302 0.0 3.0 0.00 0.00 0.00 56 1021.9
20230131222301 24 302 0.0 4.0 0.00 0.00 0.00 57 1021.8
20230131222200 24 221 0.0 4.0 0.00 0.00 0.00 58 1021.8
20230131222101 24 300 0.0 4.0 0.00 0.00 0.00 58 1021.9
20230131221932 24 300 0.0 4.0 0.00 0.00 0.00 58 1021.9
20230131221901 24 300 0.0 4.0 0.00 0.00 0.00 58 1021.9
20230131221802 24 300 0.0 4.0 0.00 0.00 0.00 59 1021.9
20230131221658 24 300 0.0 4.0 0.00 0.00 0.00 59 1021.9
20230131221624 24 300 0.0 4.0 0.00 0.00 0.00 58 1021.9
20230131221613 24 300 0.0 4.0 0.00 0.00 0.00 59 1021.9
20230131221433 24 300 0.0 4.0 0.00 0.00 0.00 56 1021.9
20230131221357 24 300 0.0 6.0 0.00 0.00 0.00 55 1021.9
20230131221257 24 300 0.0 6.0 0.00 0.00 0.00 55 1021.9
20230131221159 24 265 0.0 6.0 0.00 0.00 0.00 56 1021.9
20230131221059 24 297 0.0 6.0 0.00 0.00 0.00 57 1021.9
20230131221052 24 318 0.0 6.0 0.00 0.00 0.00 56 1021.8
20230131221045 24 276 0.0 6.0 0.00 0.00 0.00 57 1021.8
20230131221040 24 85 0.0 1.0 0.00 0.00 0.00 56 1021.8
20230131221028 24 59 0.0 6.0 0.00 0.00 0.00 58 1021.9
20230131221016 24 59 0.0 6.0 0.00 0.00 0.00 58 1021.8
20230131220901 24 96 0.0 6.0 0.00 0.00 0.00 58 1021.8
20230131220846 24 243 0.0 6.0 0.00 0.00 0.00 59 1021.8
20230131220728 25 91 0.0 1.0 0.00 0.00 0.00 58 1021.7
20230131220718 24 243 0.0 6.0 0.00 0.00 0.00 59 1021.7
20230131220704 24 319 0.0 6.0 0.00 0.00 0.00 58 1021.8
20230131220651 24 319 0.0 6.0 0.00 0.00 0.00 56 1021.7
20230131220148 25 85 0.0 1.0 0.00 0.00 0.00 57 1021.7
20230131220019 25 92 0.0 1.0 0.00 0.00 0.00 58 1021.7
20230131215754 25 100 0.0 1.0 0.00 0.00 0.00 59 1021.6
20230131215655 25 101 0.0 1.0 0.00 0.00 0.00 58 1021.7
20230131215554 25 101 0.0 1.0 0.00 0.00 0.00 58 1021.6
20230131215454 25 100 0.0 1.0 0.00 0.00 0.00 57 1021.6
20230131215428 25 102 0.0 1.0 0.00 0.00 0.00 57 1021.6
20230131215353 25 102 0.0 1.0 0.00 0.00 0.00 57 1021.6
20230131215253 25 102 0.0 5.0 0.00 0.00 0.00 56 1021.6
20230131215154 25 101 0.0 5.0 0.00 0.00 0.00 56 1021.6
20230131215053 25 49 0.0 5.0 0.00 0.00 0.00 57 1021.6
20230131214928 25 300 0.0 5.0 0.00 0.00 0.00 56 1021.6
20230131214918 25 300 0.0 5.0 0.00 0.00 0.00 54 1021.5
20230131214908 25 300 0.0 5.0 0.00 0.00 0.00 55 1021.5
20230131214716 25 300 0.0 5.0 0.00 0.00 0.00 54 1021.5
20230131214707 25 300 0.0 5.0 0.00 0.00 0.00 54 1021.5
20230131214528 25 68 0.0 5.0 0.00 0.00 0.00 54 1021.5
20230131214519 25 308 0.0 5.0 0.00 0.00 0.00 53 1021.5
20230131214509 25 330 0.0 5.0 0.00 0.00 0.00 53 1021.5
20230131214253 26 71 0.0 7.0 0.00 0.00 0.00 54 1021.5
20230131214153 26 281 0.0 7.0 0.00 0.00 0.00 54 1021.6
20230131214055 26 308 0.0 7.0 0.00 0.00 0.00 55 1021.6
20230131213936 26 300 0.0 7.0 0.00 0.00 0.00 56 1021.6
20230131213848 26 238 0.0 7.0 0.00 0.00 0.00 55 1021.6
20230131213812 26 142 1.0 7.0 0.00 0.00 0.00 56 1021.5
20230131213803 26 238 0.0 7.0 0.00 0.00 0.00 56 1021.6
20230131213548 26 142 1.0 7.0 0.00 0.00 0.00 56 1021.5
20230131213449 26 344 1.0 7.0 0.00 0.00 0.00 54 1021.5
20230131213426 26 344 1.0 7.0 0.00 0.00 0.00 55 1021.5
20230131213348 26 344 1.0 7.0 0.00 0.00 0.00 55 1021.5
20230131213248 26 319 1.0 6.0 0.00 0.00 0.00 56 1021.5
20230131213149 26 308 1.0 6.0 0.00 0.00 0.00 55 1021.4
20230131213056 26 288 1.0 6.0 0.00 0.00 0.00 54 1021.4
20230131213049 26 318 1.0 6.0 0.00 0.00 0.00 55 1021.5
20230131213023 26 313 1.0 6.0 0.00 0.00 0.00 54 1021.5
20230131212907 26 267 1.0 6.0 0.00 0.00 0.00 55 1021.5
20230131212851 26 229 1.0 6.0 0.00 0.00 0.00 53 1021.4
20230131212728 26 277 1.0 6.0 0.00 0.00 0.00 55 1021.5
20230131212601 26 291 1.0 6.0 0.00 0.00 0.00 53 1021.4
20230131212440 26 285 1.0 6.0 0.00 0.00 0.00 54 1021.4
20230131212318 26 32 1.0 6.0 0.00 0.00 0.00 54 1021.3
20230131212017 26 49 1.0 3.0 0.00 0.00 0.00 57 1021.3
20230131212007 26 99 1.0 3.0 0.00 0.00 0.00 56 1021.3
20230131211956 26 84 1.0 3.0 0.00 0.00 0.00 56 1021.3
20230131211808 26 44 1.0 5.0 0.00 0.00 0.00 56 1021.3
20230131211759 26 44 1.0 3.0 0.00 0.00 0.00 56 1021.3
20230131211544 26 354 1.0 7.0 0.00 0.00 0.00 54 1021.2
20230131211445 26 283 1.0 8.0 0.00 0.00 0.00 55 1021.3
20230131211424 26 300 1.0 9.0 0.00 0.00 0.00 55 1021.3
20230131211346 26 304 1.0 9.0 0.00 0.00 0.00 54 1021.3
20230131211246 26 38 1.0 9.0 0.00 0.00 0.00 54 1021.2
20230131211144 26 305 2.0 11.0 0.00 0.00 0.00 53 1021.2
20230131211046 26 303 2.0 11.0 0.00 0.00 0.00 54 1021.3
20230131210930 26 296 2.0 11.0 0.00 0.00 0.00 53 1021.2
20230131210844 26 280 2.0 11.0 0.00 0.00 0.00 53 1021.2
20230131210744 26 134 2.0 11.0 0.00 0.00 0.00 53 1021.2
20230131210645 26 300 2.0 11.0 0.00 0.00 0.00 53 1021.2
20230131210545 26 259 2.0 11.0 0.00 0.00 0.00 53 1021.1
20230131210444 27 261 2.0 11.0 0.00 0.00 0.00 54 1021.2
20230131210424 27 271 2.0 11.0 0.00 0.00 0.00 54 1021.2
20230131210344 27 333 2.0 11.0 0.00 0.00 0.00 53 1021.1
20230131210246 27 302 2.0 11.0 0.00 0.00 0.00 52 1021.2
20230131210146 27 358 3.0 11.0 0.00 0.00 0.00 52 1021.1
20230131210041 27 21 3.0 11.0 0.00 0.00 0.00 52 1021.1
20230131210033 27 145 2.0 11.0 0.00 0.00 0.00 52 1021.1
20230131210003 27 325 2.0 11.0 0.00 0.00 0.00 52 1021.1
20230131205952 27 296 2.0 11.0 0.00 0.00 0.00 52 1021.1
20230131205756 27 285 2.0 11.0 0.00 0.00 0.00 52 1021.2
20230131205741 27 307 2.0 11.0 0.00 0.00 0.00 52 1021.1
20230131205627 28 283 2.0 11.0 0.00 0.00 0.00 51 1021.0
20230131205617 27 289 2.0 11.0 0.00 0.00 0.00 52 1021.1
20230131205453 27 13 2.0 11.0 0.00 0.00 0.00 51 1021.0
20230131205306 28 297 2.0 7.0 0.00 0.00 0.00 51 1021.1
20230131205257 28 311 2.0 11.0 0.00 0.00 0.00 51 1021.1
20230131205040 28 325 2.0 7.0 0.00 0.00 0.00 51 1021.0
20230131204940 28 264 2.0 7.0 0.00 0.00 0.00 52 1021.1
20230131204924 28 82 2.0 7.0 0.00 0.00 0.00 52 1021.1
20230131204840 28 297 2.0 7.0 0.00 0.00 0.00 52 1021.0
20230131204825 28 67 2.0 8.0 0.00 0.00 0.00 52 1021.0
20230131204819 28 290 2.0 8.0 0.00 0.00 0.00 52 1021.0
20230131204809 28 307 2.0 7.0 0.00 0.00 0.00 52 1021.1
20230131204440 28 308 2.0 8.0 0.00 0.00 0.00 52 1021.0
20230131204424 28 284 2.0 8.0 0.00 0.00 0.00 52 1021.0
20230131204340 28 41 2.0 8.0 0.00 0.00 0.00 52 1021.0
20230131204243 28 304 3.0 8.0 0.00 0.00 0.00 52 1021.0
20230131204137 28 260 3.0 8.0 0.00 0.00 0.00 52 1021.0
20230131204102 27 294 2.0 8.0 0.00 0.00 0.00 52 1020.9
20230131204052 28 122 2.0 8.0 0.00 0.00 0.00 52 1021.0
20230131203921 27 8 2.0 8.0 0.00 0.00 0.00 52 1020.9
20230131203835 27 330 2.0 8.0 0.00 0.00 0.00 52 1020.9
20230131203735 27 271 2.0 8.0 0.00 0.00 0.00 52 1021.0
20230131203636 27 72 2.0 8.0 0.00 0.00 0.00 52 1021.0
20230131203537 28 255 2.0 8.0 0.00 0.00 0.00 52 1021.0
20230131203506 27 300 2.0 8.0 0.00 0.00 0.00 53 1021.0
20230131203457 27 136 2.0 8.0 0.00 0.00 0.00 53 1021.0
20230131203449 27 304 2.0 8.0 0.00 0.00 0.00 53 1021.0
20230131203237 27 259 2.0 8.0 0.00 0.00 0.00 54 1020.9
20230131203203 27 327 2.0 8.0 0.00 0.00 0.00 53 1021.0
20230131203152 27 60 2.0 8.0 0.00 0.00 0.00 54 1021.0
20230131203006 27 79 2.0 8.0 0.00 0.00 0.00 53 1020.9
20230131202955 27 86 2.0 8.0 0.00 0.00 0.00 53 1020.9
20230131202947 27 128 2.0 8.0 0.00 0.00 0.00 53 1020.9
20230131202736 27 226 2.0 8.0 0.00 0.00 0.00 54 1021.0
20230131202636 27 308 2.0 8.0 0.00 0.00 0.00 53 1021.0
20230131202537 27 299 2.0 7.0 0.00 0.00 0.00 53 1021.0
20230131202448 28 34 1.0 6.0 0.00 0.00 0.00 55 1020.9
20230131202439 28 269 2.0 7.0 0.00 0.00 0.00 53 1021.0
20230131202422 28 283 2.0 7.0 0.00 0.00 0.00 53 1021.0
20230131202412 28 294 1.0 6.0 0.00 0.00 0.00 54 1020.9
20230131202405 28 36 1.0 6.0 0.00 0.00 0.00 53 1020.9
20230131202356 28 318 2.0 7.0 0.00 0.00 0.00 54 1021.0
20230131202341 28 294 2.0 7.0 0.00 0.00 0.00 55 1021.1
20230131202327 28 96 1.0 6.0 0.00 0.00 0.00 54 1020.9
20230131201735 27 54 1.0 6.0 0.00 0.00 0.00 53 1020.9
20230131201651 28 296 2.0 8.0 0.00 0.00 0.00 54 1021.0
20230131201633 28 58 1.0 6.0 0.00 0.00 0.00 54 1021.0
20230131201543 28 61 1.0 8.0 0.00 0.00 0.00 54 1021.0
20230131201527 28 296 2.0 8.0 0.00 0.00 0.00 54 1021.0
20230131201333 28 296 2.0 8.0 0.00 0.00 0.00 54 1021.1
20230131201235 28 96 2.0 8.0 0.00 0.00 0.00 54 1021.1
20230131201151 28 302 2.0 8.0 0.00 0.00 0.00 52 1021.0
20230131201134 28 283 1.0 8.0 0.00 0.00 0.00 55 1021.0
20230131201044 28 328 1.0 8.0 0.00 0.00 0.00 55 1021.0
20230131201027 28 302 2.0 8.0 0.00 0.00 0.00 53 1021.0
20230131200835 28 296 2.0 8.0 0.00 0.00 0.00 52 1020.9
20230131200733 28 248 2.0 8.0 0.00 0.00 0.00 52 1020.9
20230131200633 28 269 2.0 8.0 0.00 0.00 0.00 52 1020.9
20230131200533 28 285 2.0 8.0 0.00 0.00 0.00 52 1020.9
20230131200434 28 72 1.0 8.0 0.00 0.00 0.00 52 1021.0
20230131200418 28 330 1.0 8.0 0.00 0.00 0.00 52 1021.0
20230131200330 28 314 1.0 8.0 0.00 0.00 0.00 52 1020.9
20230131200229 28 72 1.0 8.0 0.00 0.00 0.00 52 1020.9
20230131200150 29 285 2.0 12.0 0.00 0.00 0.00 52 1020.9
20230131200129 28 55 2.0 8.0 0.00 0.00 0.00 52 1020.9
20230131200044 29 302 2.0 8.0 0.00 0.00 0.00 52 1020.9
20230131200028 29 302 2.0 12.0 0.00 0.00 0.00 52 1020.9
20230131195830 29 300 2.0 12.0 0.00 0.00 0.00 51 1020.9
20230131195728 29 16 2.0 12.0 0.00 0.00 0.00 51 1020.9
20230131195652 29 277 2.0 12.0 0.00 0.00 0.00 52 1020.9
20230131195643 29 284 2.0 12.0 0.00 0.00 0.00 52 1020.9
20230131195430 29 49 2.0 12.0 0.00 0.00 0.00 52 1020.9
20230131195418 29 319 2.0 12.0 0.00 0.00 0.00 52 1020.9
20230131195329 29 284 2.0 12.0 0.00 0.00 0.00 51 1020.8
20230131195228 29 278 2.0 12.0 0.00 0.00 0.00 51 1020.8
20230131195128 29 328 2.0 12.0 0.00 0.00 0.00 50 1020.8
20230131195028 29 277 2.0 12.0 0.00 0.00 0.00 50 1020.8
20230131194928 29 300 2.0 11.0 0.00 0.00 0.00 50 1020.8
20230131194918 29 333 2.0 11.0 0.00 0.00 0.00 50 1020.8
20230131194828 29 296 2.0 8.0 0.00 0.00 0.00 51 1020.8
20230131194728 29 266 2.0 8.0 0.00 0.00 0.00 51 1020.8
20230131194628 29 322 2.0 10.0 0.00 0.00 0.00 51 1020.7
20230131194528 29 312 2.0 10.0 0.00 0.00 0.00 52 1020.7
20230131194426 29 74 2.0 10.0 0.00 0.00 0.00 51 1020.8
20230131194417 29 49 2.0 10.0 0.00 0.00 0.00 52 1020.8
20230131194324 29 300 2.0 10.0 0.00 0.00 0.00 52 1020.7
20230131194225 29 305 2.0 10.0 0.00 0.00 0.00 51 1020.7
20230131194126 29 0 2.0 10.0 0.00 0.00 0.00 50 1020.7
20230131194024 29 277 2.0 10.0 0.00 0.00 0.00 51 1020.7
20230131193926 29 296 2.0 10.0 0.00 0.00 0.00 51 1020.6
20230131193917 29 12 2.0 10.0 0.00 0.00 0.00 51 1020.6
20230131193824 29 288 2.0 10.0 0.00 0.00 0.00 51 1020.6
20230131193725 29 352 2.0 10.0 0.00 0.00 0.00 51 1020.7
20230131193647 29 261 2.0 10.0 0.00 0.00 0.00 51 1020.7
20230131193624 29 275 2.0 10.0 0.00 0.00 0.00 52 1020.6
20230131193540 29 314 2.0 10.0 0.00 0.00 0.00 52 1020.7
20230131193525 29 273 2.0 10.0 0.00 0.00 0.00 51 1020.7
20230131193320 29 33 2.0 10.0 0.00 0.00 0.00 52 1020.6
20230131193220 29 88 2.0 10.0 0.00 0.00 0.00 52 1020.7
20230131193213 30 268 2.0 10.0 0.00 0.00 0.00 51 1020.7
20230131193206 30 358 2.0 6.0 0.00 0.00 0.00 51 1020.7
20230131193155 29 269 2.0 10.0 0.00 0.00 0.00 51 1020.6
20230131193024 30 72 2.0 6.0 0.00 0.00 0.00 51 1020.7
20230131192820 30 270 2.0 6.0 0.00 0.00 0.00 51 1020.7
20230131192743 30 302 2.0 13.0 0.00 0.00 0.00 52 1020.7
20230131192733 30 285 2.0 13.0 0.00 0.00 0.00 52 1020.7
20230131192612 30 338 2.0 13.0 0.00 0.00 0.00 51 1020.6
20230131192606 30 136 1.0 13.0 0.00 0.00 0.00 51 1020.6
20230131192554 30 314 2.0 13.0 0.00 0.00 0.00 52 1020.6
20230131192432 30 339 2.0 13.0 0.00 0.00 0.00 51 1020.6
20230131192242 31 283 1.0 13.0 0.00 0.00 0.00 52 1020.6
20230131192235 31 297 1.0 13.0 0.00 0.00 0.00 51 1020.5
20230131192228 31 330 1.0 13.0 0.00 0.00 0.00 54 1020.5
20230131192221 30 322 1.0 13.0 0.00 0.00 0.00 51 1020.6
20230131192206 30 283 1.0 13.0 0.00 0.00 0.00 52 1020.6
20230131191931 31 297 1.0 13.0 0.00 0.00 0.00 51 1020.5
20230131191758 31 81 1.0 6.0 0.00 0.00 0.00 53 1020.5
20230131191615 31 294 1.0 6.0 0.00 0.00 0.00 53 1020.4
20230131191530 31 283 1.0 6.0 0.00 0.00 0.00 54 1020.5
20230131191408 31 280 1.0 6.0 0.00 0.00 0.00 55 1020.4
20230131191309 31 322 2.0 6.0 0.00 0.00 0.00 53 1020.4
20230131191206 31 311 1.0 6.0 0.00 0.00 0.00 54 1020.4
20230131191107 31 58 2.0 6.0 0.00 0.00 0.00 51 1020.4
20230131191008 31 278 2.0 6.0 0.00 0.00 0.00 50 1020.4
20230131190912 31 301 1.0 6.0 0.00 0.00 0.00 50 1020.4
20230131190904 31 54 1.0 6.0 0.00 0.00 0.00 50 1020.4
20230131190806 31 307 2.0 6.0 0.00 0.00 0.00 50 1020.4
20230131190704 31 316 1.0 6.0 0.00 0.00 0.00 50 1020.4
20230131190600 31 281 1.0 6.0 0.00 0.00 0.00 50 1020.4
20230131190454 32 302 1.0 6.0 0.00 0.00 0.00 50 1020.3
20230131190408 32 314 1.0 6.0 0.00 0.00 0.00 50 1020.4
20230131190355 32 49 1.0 6.0 0.00 0.00 0.00 52 1020.4
20230131190254 32 285 1.0 6.0 0.00 0.00 0.00 53 1020.3
20230131190154 32 131 1.0 5.0 0.00 0.00 0.00 54 1020.2
20230131190116 32 325 1.0 5.0 0.00 0.00 0.00 50 1020.3
20230131190108 32 259 1.0 5.0 0.00 0.00 0.00 53 1020.3
20230131185917 32 321 1.0 6.0 0.00 0.00 0.00 51 1020.2
20230131185910 32 308 1.0 5.0 0.00 0.00 0.00 50 1020.3
20230131185901 32 316 1.0 5.0 0.00 0.00 0.00 50 1020.3
20230131185648 32 327 1.0 6.0 0.00 0.00 0.00 51 1020.2
20230131185547 32 257 1.0 6.0 0.00 0.00 0.00 51 1020.2
20230131185446 31 302 1.0 6.0 0.00 0.00 0.00 51 1020.2
20230131185401 32 302 1.0 6.0 0.00 0.00 0.00 51 1020.2
20230131185346 32 278 1.0 6.0 0.00 0.00 0.00 51 1020.2
20230131185257 31 305 1.0 6.0 0.00 0.00 0.00 55 1020.1
20230131185249 32 279 1.0 6.0 0.00 0.00 0.00 51 1020.1
20230131185234 31 296 1.0 6.0 0.00 0.00 0.00 52 1020.1
20230131185114 31 305 1.0 6.0 0.00 0.00 0.00 52 1020.1
20230131185059 31 304 1.0 6.0 0.00 0.00 0.00 55 1020.1
20230131184735 31 277 1.0 6.0 0.00 0.00 0.00 52 1020.1
20230131184634 31 264 1.0 6.0 0.00 0.00 0.00 54 1020.2
20230131184534 31 302 1.0 6.0 0.00 0.00 0.00 56 1020.2
20230131184436 31 302 1.0 6.0 0.00 0.00 0.00 58 1020.2
20230131184352 31 70 1.0 6.0 0.00 0.00 0.00 57 1020.2
20230131184333 31 69 1.0 6.0 0.00 0.00 0.00 57 1020.2
20230131184235 30 69 1.0 6.0 0.00 0.00 0.00 53 1020.2
20230131184131 30 302 1.0 6.0 0.00 0.00 0.00 53 1020.2
20230131184027 30 305 1.0 6.0 0.00 0.00 0.00 53 1020.2
20230131183927 30 300 1.0 6.0 0.00 0.00 0.00 54 1020.1
20230131183845 30 304 1.0 6.0 0.00 0.00 0.00 55 1020.1
20230131183825 30 51 1.0 6.0 0.00 0.00 0.00 55 1020.1
20230131183725 30 89 1.0 6.0 0.00 0.00 0.00 57 1020.2
20230131183623 30 336 1.0 5.0 0.00 0.00 0.00 56 1020.1
20230131183524 30 290 1.0 5.0 0.00 0.00 0.00 57 1020.1
20230131183423 30 56 1.0 5.0 0.00 0.00 0.00 57 1020.1
20230131183339 30 276 1.0 5.0 0.00 0.00 0.00 57 1020.2
20230131183322 30 294 1.0 5.0 0.00 0.00 0.00 56 1020.2
20230131183247 29 294 1.0 5.0 0.00 0.00 0.00 56 1020.2
20230131183242 29 313 1.0 6.0 0.00 0.00 0.00 56 1020.2
20230131183233 29 294 1.0 5.0 0.00 0.00 0.00 55 1020.2
20230131183103 29 288 1.0 6.0 0.00 0.00 0.00 56 1020.2
20230131183051 29 304 1.0 5.0 0.00 0.00 0.00 56 1020.1
20230131183036 29 297 1.0 6.0 0.00 0.00 0.00 56 1020.2
20230131182715 29 32 1.0 6.0 0.00 0.00 0.00 56 1020.2
20230131182637 29 296 1.0 6.0 0.00 0.00 0.00 57 1020.2
20230131182629 29 288 1.0 6.0 0.00 0.00 0.00 57 1020.2
20230131182412 29 314 1.0 6.0 0.00 0.00 0.00 56 1020.2
20230131182341 29 68 1.0 6.0 0.00 0.00 0.00 56 1020.2
20230131182333 29 318 1.0 6.0 0.00 0.00 0.00 56 1020.1
20230131182323 29 320 1.0 6.0 0.00 0.00 0.00 56 1020.1
20230131182105 29 233 1.0 6.0 0.00 0.00 0.00 56 1020.1
20230131182005 29 299 1.0 6.0 0.00 0.00 0.00 57 1020.1
20230131181858 29 60 1.0 6.0 0.00 0.00 0.00 57 1020.0
20230131181822 29 344 1.0 6.0 0.00 0.00 0.00 57 1020.1
20230131181758 29 82 1.0 6.0 0.00 0.00 0.00 58 1020.1
20230131181659 29 294 1.0 6.0 0.00 0.00 0.00 59 1020.0
20230131181613 29 305 0.0 4.0 0.00 0.00 0.00 60 1019.9
20230131181606 29 305 1.0 6.0 0.00 0.00 0.00 60 1020.0
20230131181559 29 220 0.0 4.0 0.00 0.00 0.00 60 1020.0
20230131181544 29 305 0.0 4.0 0.00 0.00 0.00 61 1020.0
20230131181253 29 305 1.0 6.0 0.00 0.00 0.00 59 1020.0
20230131181231 29 325 1.0 6.0 0.00 0.00 0.00 58 1020.0
20230131181225 29 281 1.0 6.0 0.00 0.00 0.00 57 1020.2
20230131181217 29 111 1.0 6.0 0.00 0.00 0.00 57 1020.2
20230131181208 29 325 1.0 6.0 0.00 0.00 0.00 58 1020.0
20230131181037 29 322 1.0 6.0 0.00 0.00 0.00 57 1020.1
20230131180746 29 302 1.0 6.0 0.00 0.00 0.00 57 1020.1
20230131180646 29 316 1.0 6.0 0.00 0.00 0.00 57 1020.2
20230131180546 29 305 1.0 6.0 0.00 0.00 0.00 57 1020.3
20230131180446 29 34 2.0 6.0 0.00 0.00 0.00 57 1020.3
20230131180436 29 305 2.0 8.0 0.00 0.00 0.00 57 1020.3
20230131180430 29 259 2.0 8.0 0.00 0.00 0.00 57 1020.3
20230131180417 29 355 2.0 8.0 0.00 0.00 0.00 57 1020.4
20230131180406 29 285 2.0 8.0 0.00 0.00 0.00 57 1020.4
20230131180040 29 274 2.0 9.0 0.00 0.00 0.00 57 1020.3
20230131175940 29 62 2.0 9.0 0.00 0.00 0.00 59 1020.2
20230131175905 29 224 3.0 9.0 0.00 0.00 0.00 55 1020.2
20230131175855 29 308 3.0 9.0 0.00 0.00 0.00 57 1020.2
20230131175844 29 307 3.0 9.0 0.00 0.00 0.00 57 1020.2
20230131175635 29 304 2.0 9.0 0.00 0.00 0.00 55 1020.2
20230131175612 30 108 2.0 9.0 0.00 0.00 0.00 55 1020.3
20230131175535 29 280 2.0 9.0 0.00 0.00 0.00 54 1020.3
20230131175519 29 300 1.0 8.0 0.00 0.00 0.00 56 1020.4
20230131175508 30 294 2.0 9.0 0.00 0.00 0.00 55 1020.2
20230131175452 30 304 2.0 9.0 0.00 0.00 0.00 56 1020.3
20230131175331 30 39 2.0 9.0 0.00 0.00 0.00 55 1020.3
20230131175211 30 281 1.0 9.0 0.00 0.00 0.00 55 1020.4
20230131175053 29 319 1.0 8.0 0.00 0.00 0.00 56 1020.3
20230131175044 29 330 1.0 8.0 0.00 0.00 0.00 57 1020.3
20230131175027 29 347 1.0 8.0 0.00 0.00 0.00 57 1020.3
20230131174903 29 358 1.0 8.0 0.00 0.00 0.00 56 1020.4
20230131174421 29 353 1.0 8.0 0.00 0.00 0.00 56 1020.3
20230131174314 29 66 1.0 7.0 0.00 0.00 0.00 57 1020.2
20230131174300 29 302 1.0 7.0 0.00 0.00 0.00 57 1020.2
20230131174213 29 273 1.0 7.0 0.00 0.00 0.00 57 1020.2
20230131174114 29 125 1.0 7.0 0.00 0.00 0.00 56 1020.3
20230131174059 29 264 1.0 7.0 0.00 0.00 0.00 56 1020.2
20230131174052 29 290 1.0 7.0 0.00 0.00 0.00 56 1020.2
20230131174041 29 291 1.0 7.0 0.00 0.00 0.00 56 1020.2
20230131173757 29 294 1.0 7.0 0.00 0.00 0.00 55 1020.2
20230131173709 29 281 1.0 7.0 0.00 0.00 0.00 56 1020.2
20230131173608 29 293 1.0 5.0 0.00 0.00 0.00 56 1020.3
20230131173547 30 302 1.0 6.0 0.00 0.00 0.00 56 1020.2
20230131173543 30 302 1.0 6.0 0.00 0.00 0.00 56 1020.2
20230131173533 29 271 1.0 5.0 0.00 0.00 0.00 56 1020.3
20230131173519 29 285 1.0 5.0 0.00 0.00 0.00 56 1020.2
20230131173205 30 303 1.0 6.0 0.00 0.00 0.00 56 1020.2
20230131173105 30 29 1.0 7.0 0.00 0.00 0.00 56 1020.2
20230131173003 30 82 1.0 7.0 0.00 0.00 0.00 56 1020.2
20230131172905 30 78 1.0 7.0 0.00 0.00 0.00 56 1020.3
20230131172833 30 336 1.0 7.0 0.00 0.00 0.00 58 1020.2
20230131172813 30 84 1.0 7.0 0.00 0.00 0.00 57 1020.2
20230131172601 30 210 2.0 7.0 0.00 0.00 0.00 57 1020.2
20230131172518 30 222 2.0 7.0 0.00 0.00 0.00 55 1020.1
20230131172510 30 264 2.0 7.0 0.00 0.00 0.00 56 1020.1
20230131172300 30 101 2.0 7.0 0.00 0.00 0.00 55 1020.1
20230131172255 30 103 2.0 7.0 0.00 0.00 0.00 55 1020.1
20230131172214 31 297 2.0 10.0 0.00 0.00 0.00 55 1020.2
20230131172207 31 291 2.0 10.0 0.00 0.00 0.00 55 1020.2
20230131172202 31 263 2.0 10.0 0.00 0.00 0.00 55 1020.2
20230131172155 30 38 2.0 10.0 0.00 0.00 0.00 55 1020.2
20230131172139 31 294 2.0 10.0 0.00 0.00 0.00 56 1020.2
20230131172124 31 327 2.0 10.0 0.00 0.00 0.00 55 1020.2
20230131171648 31 294 2.0 10.0 0.00 0.00 0.00 55 1020.3
20230131171609 31 307 2.0 10.0 0.00 0.00 0.00 54 1020.2
20230131171601 31 284 2.0 10.0 0.00 0.00 0.00 56 1020.3
20230131171343 31 321 2.0 10.0 0.00 0.00 0.00 53 1020.2
20230131171258 32 280 2.0 10.0 0.00 0.00 0.00 54 1020.2
20230131171236 32 316 2.0 10.0 0.00 0.00 0.00 54 1020.2
20230131171202 33 321 2.0 10.0 0.00 0.00 0.00 54 1020.3
20230131171152 32 319 2.0 10.0 0.00 0.00 0.00 53 1020.3
20230131170936 33 312 2.0 10.0 0.00 0.00 0.00 54 1020.3
20230131170902 33 285 2.0 10.0 0.00 0.00 0.00 54 1020.4
20230131170853 33 288 2.0 10.0 0.00 0.00 0.00 54 1020.3
20230131170842 33 302 2.0 10.0 0.00 0.00 0.00 55 1020.3
20230131170634 33 8 2.0 10.0 0.00 0.00 0.00 55 1020.4
20230131170530 33 91 2.0 10.0 0.00 0.00 0.00 54 1020.4
20230131170506 33 310 2.0 10.0 0.00 0.00 0.00 54 1020.4
20230131170346 33 260 1.0 10.0 0.00 0.00 0.00 55 1020.5
20230131170335 33 288 1.0 10.0 0.00 0.00 0.00 56 1020.5
20230131170128 33 296 1.0 5.0 0.00 0.00 0.00 56 1020.4
20230131170029 33 26 1.0 5.0 0.00 0.00 0.00 55 1020.4
20230131165928 33 6 1.0 5.0 0.00 0.00 0.00 56 1020.2
20230131165854 33 290 1.0 8.0 0.00 0.00 0.00 59 1020.3
20230131165845 33 18 1.0 8.0 0.00 0.00 0.00 57 1020.2
20230131165834 33 305 1.0 8.0 0.00 0.00 0.00 57 1020.2
20230131165623 33 249 1.0 8.0 0.00 0.00 0.00 57 1020.3
20230131165544 33 68 1.0 8.0 0.00 0.00 0.00 57 1020.4
20230131165537 33 252 1.0 8.0 0.00 0.00 0.00 57 1020.3
20230131165343 32 64 1.0 8.0 0.00 0.00 0.00 56 1020.4
20230131165335 33 73 1.0 8.0 0.00 0.00 0.00 56 1020.4
20230131165325 32 73 1.0 8.0 0.00 0.00 0.00 56 1020.4
20230131165111 32 61 1.0 8.0 0.00 0.00 0.00 55 1020.4
20230131165010 32 56 1.0 8.0 0.00 0.00 0.00 55 1020.5
20230131164912 32 312 1.0 8.0 0.00 0.00 0.00 56 1020.5
20230131164811 32 321 1.0 7.0 0.00 0.00 0.00 56 1020.5
20230131164758 32 325 1.0 7.0 0.00 0.00 0.00 56 1020.5
20230131164704 32 58 1.0 7.0 0.00 0.00 0.00 57 1020.5
20230131164604 32 300 1.0 6.0 0.00 0.00 0.00 59 1020.5
20230131164504 32 278 1.0 5.0 0.00 0.00 0.00 59 1020.6
20230131164405 32 296 1.0 5.0 0.00 0.00 0.00 59 1020.5
20230131164305 32 266 1.0 10.0 0.00 0.00 0.00 59 1020.6
20230131164254 32 249 1.0 10.0 0.00 0.00 0.00 59 1020.6
20230131164158 32 291 1.0 10.0 0.00 0.00 0.00 60 1020.6
20230131164058 32 72 1.0 10.0 0.00 0.00 0.00 60 1020.6
20230131163956 32 312 1.0 10.0 0.00 0.00 0.00 60 1020.6
20230131163856 32 96 1.0 10.0 0.00 0.00 0.00 61 1020.6
20230131163758 31 276 2.0 10.0 0.00 0.00 0.00 61 1020.6
20230131163736 31 343 2.0 10.0 0.00 0.00 0.00 61 1020.7
20230131163732 31 344 2.0 10.0 0.00 0.00 0.00 61 1020.7
20230131163721 31 319 2.0 10.0 0.00 0.00 0.00 62 1020.6
20230131163350 31 27 2.0 10.0 0.00 0.00 0.00 62 1020.7
20230131163251 31 135 2.0 7.0 0.00 0.00 0.00 63 1020.7
20230131163148 31 80 2.0 7.0 0.00 0.00 0.00 62 1020.7
20230131163047 31 354 2.0 7.0 0.00 0.00 0.00 61 1020.7
20230131162947 31 0 2.0 7.0 0.00 0.00 0.00 61 1020.8
20230131162847 31 302 2.0 7.0 0.00 0.00 0.00 62 1020.8
20230131162746 31 285 2.0 7.0 0.00 0.00 0.00 62 1020.9
20230131162702 31 290 2.0 7.0 0.00 0.00 0.00 62 1020.9
20230131162652 31 302 2.0 7.0 0.00 0.00 0.00 63 1020.8
20230131162440 31 328 2.0 7.0 0.00 0.00 0.00 63 1020.8
20230131162339 31 357 2.0 7.0 0.00 0.00 0.00 63 1020.8
20230131162239 31 351 2.0 7.0 0.00 0.00 0.00 63 1020.9
20230131162134 31 267 2.0 8.0 0.00 0.00 0.00 62 1020.9
20230131162035 31 346 2.0 8.0 0.00 0.00 0.00 63 1020.9
20230131161935 31 262 2.0 8.0 0.00 0.00 0.00 64 1020.9
20230131161836 31 352 2.0 8.0 0.00 0.00 0.00 65 1020.9
20230131161734 31 300 2.0 8.0 0.00 0.00 0.00 64 1020.9
20230131161627 31 277 2.0 8.0 0.00 0.00 0.00 65 1020.9
20230131161526 31 285 2.0 8.0 0.00 0.00 0.00 65 1021.0
20230131161426 31 288 2.0 8.0 0.00 0.00 0.00 66 1020.9
20230131161356 30 228 2.0 8.0 0.00 0.00 0.00 67 1021.0
20230131161345 31 338 1.0 8.0 0.00 0.00 0.00 66 1020.9
20230131161228 30 228 2.0 8.0 0.00 0.00 0.00 67 1021.0
20230131161125 30 305 2.0 8.0 0.00 0.00 0.00 66 1021.0
20230131161022 30 302 2.0 8.0 0.00 0.00 0.00 66 1021.0
20230131160923 30 300 2.0 13.0 0.00 0.00 0.00 66 1021.0
20230131160824 30 283 2.0 13.0 0.00 0.00 0.00 67 1021.0
20230131160722 30 307 2.0 13.0 0.00 0.00 0.00 67 1021.0
20230131160645 30 288 3.0 13.0 0.00 0.00 0.00 67 1021.0
20230131160629 30 302 2.0 13.0 0.00 0.00 0.00 67 1021.0
20230131160624 30 307 2.0 13.0 0.00 0.00 0.00 68 1020.9
20230131160610 30 294 2.0 13.0 0.00 0.00 0.00 68 1021.0
20230131160552 30 294 2.0 13.0 0.00 0.00 0.00 67 1021.0
20230131160109 30 297 2.0 13.0 0.00 0.00 0.00 67 1020.9
20230131160010 30 315 2.0 13.0 0.00 0.00 0.00 68 1021.0
20230131155955 30 300 2.0 9.0 0.00 0.00 0.00 67 1020.8
20230131155941 30 125 2.0 9.0 0.00 0.00 0.00 68 1020.9
20230131155928 30 319 2.0 9.0 0.00 0.00 0.00 67 1020.9
20230131155602 31 277 2.0 9.0 0.00 0.00 0.00 68 1020.9
20230131155502 31 302 2.0 9.0 0.00 0.00 0.00 67 1020.8
20230131155437 31 260 2.0 10.0 0.00 0.00 0.00 68 1020.8
20230131155403 31 294 2.0 9.0 0.00 0.00 0.00 68 1020.8
20230131155324 31 263 2.0 9.0 0.00 0.00 0.00 68 1020.9
20230131155309 31 260 2.0 10.0 0.00 0.00 0.00 68 1020.8
20230131155122 31 290 2.0 10.0 0.00 0.00 0.00 67 1020.7
20230131155111 31 319 2.0 10.0 0.00 0.00 0.00 67 1020.7
20230131154856 31 288 2.0 10.0 0.00 0.00 0.00 67 1020.7
20230131154756 31 307 1.0 10.0 0.00 0.00 0.00 67 1020.7
20230131154659 31 77 2.0 10.0 0.00 0.00 0.00 67 1020.6
20230131154550 31 27 2.0 10.0 0.00 0.00 0.00 66 1020.5
20230131154451 31 31 2.0 10.0 0.00 0.00 0.00 65 1020.4
20230131154351 31 253 2.0 10.0 0.00 0.00 0.00 64 1020.5
20230131154252 31 302 1.0 10.0 0.00 0.00 0.00 64 1020.5
20230131154214 31 279 2.0 7.0 0.00 0.00 0.00 63 1020.5
20230131154202 31 294 1.0 7.0 0.00 0.00 0.00 63 1020.5
20230131153944 31 296 2.0 7.0 0.00 0.00 0.00 62 1020.5
20230131153844 31 277 2.0 7.0 0.00 0.00 0.00 62 1020.4
20230131153745 31 288 2.0 8.0 0.00 0.00 0.00 62 1020.4
20230131153645 31 248 2.0 8.0 0.00 0.00 0.00 63 1020.5
20230131153542 31 294 2.0 8.0 0.00 0.00 0.00 63 1020.4
20230131153441 31 25 2.0 8.0 0.00 0.00 0.00 62 1020.4
20230131153344 31 108 2.0 8.0 0.00 0.00 0.00 62 1020.5
20230131153241 31 327 2.0 8.0 0.00 0.00 0.00 62 1020.5
20230131153138 31 14 2.0 8.0 0.00 0.00 0.00 62 1020.5
20230131153034 31 25 2.0 8.0 0.00 0.00 0.00 63 1020.5
20230131152958 32 308 1.0 8.0 0.00 0.00 0.00 64 1020.4
20230131152947 32 66 2.0 8.0 0.00 0.00 0.00 63 1020.4
20230131152732 32 290 1.0 7.0 0.00 0.00 0.00 66 1020.4
20230131152721 32 327 1.0 7.0 0.00 0.00 0.00 66 1020.4
20230131152716 32 276 1.0 7.0 0.00 0.00 0.00 64 1020.3
20230131152657 32 310 1.0 7.0 0.00 0.00 0.00 66 1020.4
20230131152328 32 256 2.0 7.0 0.00 0.00 0.00 64 1020.3
20230131152226 32 302 1.0 7.0 0.00 0.00 0.00 65 1020.3
20230131152152 32 4 1.0 7.0 0.00 0.00 0.00 65 1020.3
20230131152137 32 285 1.0 7.0 0.00 0.00 0.00 65 1020.3
20230131151920 32 61 1.0 7.0 0.00 0.00 0.00 65 1020.2
20230131151820 32 260 1.0 7.0 0.00 0.00 0.00 64 1020.1
20230131151806 32 79 2.0 7.0 0.00 0.00 0.00 64 1020.1
20230131151802 32 307 2.0 6.0 0.00 0.00 0.00 64 1020.1
20230131151750 32 345 2.0 7.0 0.00 0.00 0.00 64 1020.1
20230131151631 32 79 2.0 7.0 0.00 0.00 0.00 64 1020.1
20230131151440 32 296 1.0 6.0 0.00 0.00 0.00 63 1020.1
20230131151429 32 296 2.0 6.0 0.00 0.00 0.00 63 1020.1
20230131151216 32 290 2.0 6.0 0.00 0.00 0.00 62 1020.0
20230131151116 32 290 2.0 6.0 0.00 0.00 0.00 62 1020.0
20230131151008 32 285 2.0 6.0 0.00 0.00 0.00 61 1020.0
20230131150908 32 321 2.0 6.0 0.00 0.00 0.00 61 1019.9
20230131150808 32 344 2.0 6.0 0.00 0.00 0.00 61 1019.9
20230131150708 32 283 1.0 5.0 0.00 0.00 0.00 61 1019.9
20230131150611 32 266 1.0 5.0 0.00 0.00 0.00 61 1019.9
20230131150502 32 260 1.0 5.0 0.00 0.00 0.00 61 1019.9
20230131150402 32 314 1.0 5.0 0.00 0.00 0.00 60 1019.9
20230131150304 32 252 1.0 5.0 0.00 0.00 0.00 61 1019.9
20230131150222 32 302 1.0 8.0 0.00 0.00 0.00 61 1019.8
20230131150215 32 302 2.0 8.0 0.00 0.00 0.00 61 1019.8
20230131150208 32 264 1.0 7.0 0.00 0.00 0.00 61 1019.9
20230131150150 32 22 1.0 7.0 0.00 0.00 0.00 61 1019.8
20230131145801 32 266 2.0 8.0 0.00 0.00 0.00 61 1019.8
20230131145726 32 276 2.0 8.0 0.00 0.00 0.00 62 1019.6
20230131145718 32 18 2.0 8.0 0.00 0.00 0.00 61 1019.7
20230131145559 32 276 2.0 8.0 0.00 0.00 0.00 62 1019.6
20230131145453 32 305 2.0 8.0 0.00 0.00 0.00 61 1019.6
20230131145350 32 288 2.0 8.0 0.00 0.00 0.00 61 1019.6
20230131145322 32 281 2.0 8.0 0.00 0.00 0.00 62 1019.5
20230131145250 32 299 2.0 8.0 0.00 0.00 0.00 62 1019.6
20230131145210 32 288 2.0 8.0 0.00 0.00 0.00 62 1019.6
20230131145156 32 281 2.0 8.0 0.00 0.00 0.00 62 1019.5
20230131144944 32 44 2.0 7.0 0.00 0.00 0.00 62 1019.5
20230131144845 32 36 2.0 7.0 0.00 0.00 0.00 62 1019.7
20230131144746 32 330 2.0 7.0 0.00 0.00 0.00 63 1019.6
20230131144645 32 228 2.0 7.0 0.00 0.00 0.00 63 1019.5
20230131144548 32 242 2.0 7.0 0.00 0.00 0.00 63 1019.6
20230131144438 32 291 2.0 7.0 0.00 0.00 0.00 63 1019.4
20230131144422 32 78 2.0 7.0 0.00 0.00 0.00 63 1019.5
20230131144238 32 339 1.0 7.0 0.00 0.00 0.00 64 1019.3
20230131144158 32 321 1.0 6.0 0.00 0.00 0.00 65 1019.5
20230131144145 32 288 2.0 6.0 0.00 0.00 0.00 64 1019.4
20230131144002 32 302 1.0 6.0 0.00 0.00 0.00 65 1019.3
20230131143950 32 342 1.0 6.0 0.00 0.00 0.00 64 1019.4
20230131143827 32 41 1.0 6.0 0.00 0.00 0.00 65 1019.3
20230131143823 32 297 1.0 6.0 0.00 0.00 0.00 65 1019.3
20230131143808 32 315 1.0 6.0 0.00 0.00 0.00 65 1019.4
20230131143533 32 297 1.0 6.0 0.00 0.00 0.00 65 1019.3
20230131143426 32 264 1.0 4.0 0.00 0.00 0.00 65 1019.3
20230131143352 32 262 1.0 7.0 0.00 0.00 0.00 66 1019.3
20230131143342 32 265 1.0 7.0 0.00 0.00 0.00 66 1019.3
20230131143127 32 307 1.0 7.0 0.00 0.00 0.00 67 1019.2
20230131143028 32 78 1.0 7.0 0.00 0.00 0.00 68 1019.3
20230131142950 32 139 1.0 7.0 0.00 0.00 0.00 67 1019.2
20230131142940 32 310 1.0 7.0 0.00 0.00 0.00 67 1019.3
20230131142725 32 264 1.0 7.0 0.00 0.00 0.00 67 1019.3
20230131142624 32 264 1.0 7.0 0.00 0.00 0.00 67 1019.3
20230131142543 31 29 1.0 7.0 0.00 0.00 0.00 67 1019.3
20230131142530 32 266 1.0 7.0 0.00 0.00 0.00 67 1019.3
20230131142315 31 55 1.0 6.0 0.00 0.00 0.00 67 1019.3
20230131142214 31 297 1.0 6.0 0.00 0.00 0.00 67 1019.3
20230131142115 31 296 1.0 6.0 0.00 0.00 0.00 68 1019.3
20230131142017 31 342 1.0 6.0 0.00 0.00 0.00 68 1019.2
20230131141911 31 249 1.0 6.0 0.00 0.00 0.00 68 1019.3
20230131141808 31 281 1.0 6.0 0.00 0.00 0.00 69 1019.3
20230131141732 31 292 1.0 5.0 0.00 0.00 0.00 70 1019.3
20230131141723 31 353 1.0 5.0 0.00 0.00 0.00 70 1019.3
20230131141509 31 71 1.0 5.0 0.00 0.00 0.00 71 1019.2
20230131141403 31 71 1.0 6.0 0.00 0.00 0.00 71 1019.2
20230131141304 31 71 1.0 7.0 0.00 0.00 0.00 70 1019.1
20230131141203 31 70 1.0 7.0 0.00 0.00 0.00 70 1019.1
20230131141102 31 0 2.0 7.0 0.00 0.00 0.00 71 1019.1
20230131141003 31 354 2.0 7.0 0.00 0.00 0.00 71 1019.1
20230131140855 31 297 1.0 7.0 0.00 0.00 0.00 71 1019.1
20230131140755 31 283 1.0 7.0 0.00 0.00 0.00 71 1019.1
20230131140658 31 67 2.0 7.0 0.00 0.00 0.00 71 1019.2
20230131140557 31 23 2.0 7.0 0.00 0.00 0.00 71 1019.1
20230131140458 31 256 2.0 7.0 0.00 0.00 0.00 72 1019.1
20230131140413 31 5 1.0 7.0 0.00 0.00 0.00 73 1019.2
20230131140404 31 304 2.0 7.0 0.00 0.00 0.00 73 1019.2
20230131140222 31 277 1.0 6.0 0.00 0.00 0.00 73 1019.1
20230131140150 31 277 1.0 7.0 0.00 0.00 0.00 73 1019.2
20230131140110 31 283 1.0 6.0 0.00 0.00 0.00 73 1019.1
20230131140057 31 277 1.0 6.0 0.00 0.00 0.00 73 1019.1
20230131135906 30 7 1.0 6.0 0.00 0.00 0.00 76 1019.1
20230131135855 30 38 1.0 6.0 0.00 0.00 0.00 76 1019.1
20230131135848 30 243 1.0 6.0 0.00 0.00 0.00 74 1019.2
20230131135834 30 335 1.0 6.0 0.00 0.00 0.00 75 1019.1
20230131135819 30 297 1.0 6.0 0.00 0.00 0.00 75 1019.1
20230131135338 30 29 1.0 5.0 0.00 0.00 0.00 76 1019.1
20230131135237 30 300 1.0 5.0 0.00 0.00 0.00 77 1019.1
20230131135138 30 81 1.0 5.0 0.00 0.00 0.00 77 1019.1
20230131135039 30 81 1.0 5.0 0.00 0.00 0.00 76 1019.1
20230131134940 30 284 1.0 5.0 0.00 0.00 0.00 77 1019.1
20230131134836 30 288 1.0 5.0 0.00 0.00 0.00 77 1019.1
20230131134732 30 274 1.0 5.0 0.00 0.00 0.00 77 1019.1
20230131134632 30 300 1.0 5.0 0.00 0.00 0.00 77 1019.2
20230131134603 30 281 1.0 5.0 0.00 0.00 0.00 77 1019.2
20230131134554 30 300 1.0 5.0 0.00 0.00 0.00 77 1019.2
20230131134435 30 281 1.0 5.0 0.00 0.00 0.00 77 1019.2
20230131134332 30 281 0.0 5.0 0.00 0.00 0.00 77 1019.1
20230131134232 30 300 0.0 5.0 0.00 0.00 0.00 77 1019.2
20230131134131 30 288 0.0 5.0 0.00 0.00 0.00 77 1019.2
20230131134028 30 304 0.0 5.0 0.00 0.00 0.00 77 1019.2
20230131133928 30 312 0.0 5.0 0.00 0.00 0.00 77 1019.2
20230131133822 30 294 0.0 5.0 0.00 0.00 0.00 77 1019.1
20230131133720 30 276 1.0 5.0 0.00 0.00 0.00 78 1019.1
20230131133620 30 274 0.0 4.0 0.00 0.00 0.00 78 1019.1
20230131133522 30 311 0.0 3.0 0.00 0.00 0.00 78 1019.1
20230131133451 30 310 0.0 3.0 0.00 0.00 0.00 78 1019.1
20230131133435 30 311 0.0 3.0 0.00 0.00 0.00 78 1019.1
20230131133241 30 319 0.0 3.0 0.00 0.00 0.00 78 1019.1
20230131133234 30 325 1.0 3.0 0.00 0.00 0.00 78 1019.0
20230131133228 30 64 0.0 3.0 0.00 0.00 0.00 78 1019.1
20230131133221 30 311 0.0 3.0 0.00 0.00 0.00 78 1019.1
20230131133206 30 320 0.0 3.0 0.00 0.00 0.00 78 1019.0
20230131132930 30 325 1.0 3.0 0.00 0.00 0.00 78 1019.0
20230131132712 30 283 0.0 3.0 0.00 0.00 0.00 79 1019.1
20230131132633 30 318 0.0 3.0 0.00 0.00 0.00 79 1019.1
20230131132624 30 315 0.0 3.0 0.00 0.00 0.00 79 1019.1
20230131132410 30 313 0.0 3.0 0.00 0.00 0.00 79 1019.1
20230131132306 30 312 0.0 3.0 0.00 0.00 0.00 79 1019.0
20230131132231 30 269 0.0 3.0 0.00 0.00 0.00 79 1019.0
20230131132225 30 297 0.0 1.0 0.00 0.00 0.00 80 1019.0
20230131132217 30 270 0.0 3.0 0.00 0.00 0.00 79 1019.0
20230131132025 30 269 0.0 3.0 0.00 0.00 0.00 80 1019.0
20230131132009 30 297 0.0 1.0 0.00 0.00 0.00 80 1019.0
20230131131758 30 296 0.0 2.0 0.00 0.00 0.00 80 1019.1
20230131131656 30 296 0.0 2.0 0.00 0.00 0.00 80 1019.1
20230131131556 30 296 0.0 2.0 0.00 0.00 0.00 80 1019.1
20230131131457 30 296 0.0 2.0 0.00 0.00 0.00 80 1019.1
20230131131358 30 300 0.0 2.0 0.00 0.00 0.00 80 1019.1
20230131131253 30 257 0.0 2.0 0.00 0.00 0.00 81 1019.0
20230131131149 30 257 0.0 2.0 0.00 0.00 0.00 81 1019.0
20230131131050 30 257 0.0 2.0 0.00 0.00 0.00 81 1019.0
20230131130950 30 257 0.0 2.0 0.00 0.00 0.00 81 1018.9
20230131130851 30 257 0.0 2.0 0.00 0.00 0.00 82 1019.0
20230131130746 30 67 0.0 2.0 0.00 0.00 0.00 82 1018.9
20230131130713 30 67 0.0 2.0 0.00 0.00 0.00 81 1018.8
20230131130708 30 260 0.0 2.0 0.00 0.00 0.00 82 1018.9
20230131130657 30 66 0.0 2.0 0.00 0.00 0.00 82 1018.9
20230131130504 30 67 0.0 2.0 0.00 0.00 0.00 82 1018.9
20230131130450 30 260 0.0 2.0 0.00 0.00 0.00 82 1018.9
20230131130240 30 259 0.0 2.0 0.00 0.00 0.00 83 1018.8
20230131130140 30 260 0.0 2.0 0.00 0.00 0.00 83 1018.8
20230131130038 30 260 0.0 2.0 0.00 0.00 0.00 82 1018.8
20230131125939 30 259 0.0 2.0 0.00 0.00 0.00 82 1018.7
20230131125839 30 259 0.0 1.0 0.00 0.00 0.00 83 1018.7
20230131125732 30 259 0.0 0.0 0.00 0.00 0.00 83 1018.7
20230131125633 30 259 0.0 0.0 0.00 0.00 0.00 83 1018.7
20230131125534 30 259 0.0 0.0 0.00 0.00 0.00 83 1018.7
20230131125432 30 259 0.0 0.0 0.00 0.00 0.00 83 1018.7
20230131125356 30 259 0.0 0.0 0.00 0.00 0.00 83 1018.7
20230131125343 30 259 0.0 0.0 0.00 0.00 0.00 83 1018.7
20230131125155 30 259 0.0 1.0 0.00 0.00 0.00 83 1018.7
20230131125150 30 259 0.0 2.0 0.00 0.00 0.00 83 1018.7
20230131125141 30 259 0.0 1.0 0.00 0.00 0.00 83 1018.7
20230131124947 30 259 0.0 2.0 0.00 0.00 0.00 83 1018.7
20230131124933 30 259 0.0 2.0 0.00 0.00 0.00 83 1018.7
20230131124727 30 259 0.0 2.0 0.00 0.00 0.00 83 1018.6
20230131124625 30 259 0.0 2.0 0.00 0.00 0.00 84 1018.6
20230131124525 30 259 0.0 2.0 0.00 0.00 0.00 84 1018.7
20230131124422 30 259 0.0 2.0 0.00 0.00 0.00 84 1018.6
20230131124321 30 259 0.0 2.0 0.00 0.00 0.00 84 1018.6
20230131124237 30 249 0.0 2.0 0.00 0.00 0.00 84 1018.6
20230131124228 30 259 0.0 2.0 0.00 0.00 0.00 84 1018.6
20230131124013 30 287 0.0 2.0 0.00 0.00 0.00 85 1018.6
20230131123913 30 317 0.0 1.0 0.00 0.00 0.00 85 1018.6
20230131123815 30 357 0.0 1.0 0.00 0.00 0.00 85 1018.6
20230131123732 30 356 0.0 1.0 0.00 0.00 0.00 85 1018.6
20230131123722 30 357 0.0 1.0 0.00 0.00 0.00 85 1018.6
20230131123508 30 356 0.0 1.0 0.00 0.00 0.00 85 1018.6
20230131123409 30 356 0.0 1.0 0.00 0.00 0.00 85 1018.6
20230131123310 30 356 0.0 1.0 0.00 0.00 0.00 85 1018.6
20230131123206 30 356 0.0 1.0 0.00 0.00 0.00 85 1018.6
20230131123107 30 359 0.0 1.0 0.00 0.00 0.00 85 1018.6
20230131123007 29 356 0.0 1.0 0.00 0.00 0.00 85 1018.5
20230131122905 29 356 0.0 1.0 0.00 0.00 0.00 85 1018.5
20230131122828 29 356 0.0 1.0 0.00 0.00 0.00 85 1018.5
20230131122815 29 357 0.0 1.0 0.00 0.00 0.00 85 1018.5
20230131122557 29 356 0.0 1.0 0.00 0.00 0.00 85 1018.5
20230131122456 29 357 0.0 1.0 0.00 0.00 0.00 85 1018.5
20230131122355 29 357 0.0 1.0 0.00 0.00 0.00 85 1018.5
20230131122322 29 357 0.0 0.0 0.00 0.00 0.00 85 1018.5
20230131122307 29 356 0.0 1.0 0.00 0.00 0.00 85 1018.5
20230131122050 29 356 0.0 0.0 0.00 0.00 0.00 86 1018.5
20230131121950 29 356 0.0 1.0 0.00 0.00 0.00 86 1018.5
20230131121850 29 58 0.0 1.0 0.00 0.00 0.00 86 1018.5
20230131121752 29 58 0.0 1.0 0.00 0.00 0.00 86 1018.4
20230131121651 29 58 0.0 1.0 0.00 0.00 0.00 86 1018.4
20230131121612 29 58 0.0 1.0 0.00 0.00 0.00 86 1018.4
20230131121602 29 58 0.0 1.0 0.00 0.00 0.00 86 1018.5
20230131121346 29 58 0.0 1.0 0.00 0.00 0.00 87 1018.5
20230131121247 29 58 0.0 1.0 0.00 0.00 0.00 87 1018.5
20230131121145 29 58 0.0 1.0 0.00 0.00 0.00 87 1018.5
20230131121042 29 58 0.0 1.0 0.00 0.00 0.00 87 1018.5
20230131120943 29 277 0.0 1.0 0.00 0.00 0.00 87 1018.4
20230131120907 29 277 0.0 1.0 0.00 0.00 0.00 87 1018.4
20230131120857 29 277 0.0 1.0 0.00 0.00 0.00 87 1018.4
20230131120740 29 277 0.0 1.0 0.00 0.00 0.00 87 1018.4
20230131120631 29 277 0.0 1.0 0.00 0.00 0.00 88 1018.4
20230131120532 29 277 0.0 1.0 0.00 0.00 0.00 88 1018.4
20230131120504 29 277 0.0 1.0 0.00 0.00 0.00 88 1018.4
20230131120433 29 277 0.0 1.0 0.00 0.00 0.00 88 1018.4
20230131120351 29 277 0.0 1.0 0.00 0.00 0.00 88 1018.4
20230131120338 29 277 0.0 1.0 0.00 0.00 0.00 88 1018.4
20230131120131 29 277 0.0 1.0 0.00 0.00 0.00 88 1018.4
20230131120030 29 277 0.0 1.0 0.00 0.00 0.00 88 1018.5
20230131115932 29 277 0.0 0.0 0.00 0.00 0.00 88 1018.4
20230131115830 29 277 0.0 0.0 0.00 0.00 0.00 88 1018.4
20230131115756 29 277 0.0 0.0 0.00 0.00 0.00 88 1018.4
20230131115742 29 277 0.0 0.0 0.00 0.00 0.00 88 1018.4
20230131115523 29 277 0.0 0.0 0.00 0.00 0.00 88 1018.5
20230131115443 29 277 0.0 0.0 0.00 0.00 0.00 88 1018.5
20230131115436 29 277 0.0 0.0 0.00 0.00 0.00 88 1018.4
20230131115247 29 277 0.0 0.0 0.00 0.00 0.00 88 1018.4
20230131115234 29 277 0.0 0.0 0.00 0.00 0.00 88 1018.4
20230131115015 29 277 0.0 0.0 0.00 0.00 0.00 88 1018.4
20230131114914 29 277 0.0 0.0 0.00 0.00 0.00 88 1018.3
20230131114814 29 277 0.0 0.0 0.00 0.00 0.00 88 1018.3
20230131114717 29 277 0.0 0.0 0.00 0.00 0.00 87 1018.3
20230131114615 29 277 0.0 0.0 0.00 0.00 0.00 87 1018.3
20230131114512 29 277 0.0 0.0 0.00 0.00 0.00 87 1018.3
20230131114413 29 277 0.0 0.0 0.00 0.00 0.00 87 1018.4
20230131114310 29 277 0.0 0.0 0.00 0.00 0.00 87 1018.3
20230131114210 29 277 0.0 0.0 0.00 0.00 0.00 87 1018.3
20230131114104 29 277 0.0 0.0 0.00 0.00 0.00 87 1018.3
20230131114003 29 277 0.0 0.0 0.00 0.00 0.00 87 1018.3
20230131113924 29 277 0.0 0.0 0.00 0.00 0.00 87 1018.3
20230131113916 29 277 0.0 0.0 0.00 0.00 0.00 87 1018.3
20230131113707 29 277 0.0 0.0 0.00 0.00 0.00 87 1018.3
20230131113657 29 277 0.0 0.0 0.00 0.00 0.00 87 1018.4
20230131113653 29 277 0.0 0.0 0.00 0.00 0.00 87 1018.3
20230131113639 29 277 0.0 0.0 0.00 0.00 0.00 87 1018.3
20230131113624 29 277 0.0 0.0 0.00 0.00 0.00 87 1018.4
20230131113232 29 277 0.0 0.0 0.00 0.00 0.00 87 1018.2
20230131113109 29 277 0.0 0.0 0.00 0.00 0.00 87 1018.2
20230131113056 29 277 0.0 0.0 0.00 0.00 0.00 87 1018.2
20230131112935 29 277 0.0 0.0 0.00 0.00 0.00 87 1018.2
20230131112919 29 277 0.0 0.0 0.00 0.00 0.00 87 1018.1
20230131112445 29 277 0.0 1.0 0.00 0.00 0.00 87 1018.0
20230131112344 29 277 0.0 1.0 0.00 0.00 0.00 87 1018.1
20230131112245 29 277 0.0 1.0 0.00 0.00 0.00 87 1018.0
20230131112146 29 277 0.0 1.0 0.00 0.00 0.00 87 1018.1
20230131112039 29 277 0.0 1.0 0.00 0.00 0.00 87 1018.0
20230131111940 29 277 0.0 1.0 0.00 0.00 0.00 87 1018.0
20230131111911 29 277 0.0 1.0 0.00 0.00 0.00 87 1018.0
20230131111838 29 277 0.0 1.0 0.00 0.00 0.00 87 1018.0
20230131111758 29 277 0.0 1.0 0.00 0.00 0.00 87 1018.0
20230131111744 29 277 0.0 1.0 0.00 0.00 0.00 87 1018.0
20230131111538 29 277 0.0 1.0 0.00 0.00 0.00 87 1018.0
20230131111436 29 277 0.0 0.0 0.00 0.00 0.00 87 1018.0
20230131111338 29 277 0.0 0.0 0.00 0.00 0.00 87 1018.0
20230131111234 29 277 0.0 0.0 0.00 0.00 0.00 87 1017.9
20230131111135 29 277 0.0 0.0 0.00 0.00 0.00 87 1017.9
20230131111028 29 277 0.0 0.0 0.00 0.00 0.00 87 1017.9
20230131110929 29 277 0.0 0.0 0.00 0.00 0.00 87 1017.9
20230131110825 29 277 0.0 0.0 0.00 0.00 0.00 87 1017.9
20230131110725 29 277 0.0 0.0 0.00 0.00 0.00 87 1017.8
20230131110628 29 277 0.0 0.0 0.00 0.00 0.00 87 1017.8
20230131110523 29 277 0.0 0.0 0.00 0.00 0.00 87 1017.8
20230131110420 29 277 0.0 0.0 0.00 0.00 0.00 87 1018.0
20230131110320 29 277 0.0 0.0 0.00 0.00 0.00 87 1018.0
20230131110222 29 277 0.0 0.0 0.00 0.00 0.00 87 1017.9
20230131110122 29 277 0.0 1.0 0.00 0.00 0.00 87 1017.8
20230131110020 29 277 0.0 1.0 0.00 0.00 0.00 87 1017.8
20230131105918 29 277 0.0 1.0 0.00 0.00 0.00 87 1017.8
20230131105820 29 277 0.0 1.0 0.00 0.00 0.00 87 1017.7
20230131105745 29 277 0.0 1.0 0.00 0.00 0.00 87 1017.9
20230131105736 29 277 0.0 1.0 0.00 0.00 0.00 87 1017.8
20230131105617 29 277 0.0 1.0 0.00 0.00 0.00 87 1017.9
20230131105543 29 277 0.0 1.0 0.00 0.00 0.00 87 1017.8
20230131105424 29 277 0.0 1.0 0.00 0.00 0.00 87 1017.8
20230131105236 29 277 0.0 1.0 0.00 0.00 0.00 88 1017.8
20230131105227 29 277 0.0 1.0 0.00 0.00 0.00 88 1017.8
20230131105110 29 277 0.0 1.0 0.00 0.00 0.00 88 1017.8
20230131105002 29 277 0.0 1.0 0.00 0.00 0.00 88 1017.8
20230131104902 29 277 0.0 1.0 0.00 0.00 0.00 88 1017.7
20230131104802 29 277 0.0 1.0 0.00 0.00 0.00 88 1017.7
20230131104703 29 277 0.0 1.0 0.00 0.00 0.00 88 1017.7
20230131104604 29 277 0.0 1.0 0.00 0.00 0.00 88 1017.7
20230131104504 29 277 0.0 1.0 0.00 0.00 0.00 88 1017.8
20230131104400 29 277 0.0 1.0 0.00 0.00 0.00 88 1017.9
20230131104328 29 277 0.0 2.0 0.00 0.00 0.00 89 1017.7
20230131104303 29 277 0.0 2.0 0.00 0.00 0.00 88 1017.9
20230131104216 29 277 0.0 2.0 0.00 0.00 0.00 89 1017.8
20230131104202 29 277 0.0 2.0 0.00 0.00 0.00 89 1017.7
20230131103950 29 277 0.0 2.0 0.00 0.00 0.00 89 1017.7
20230131103937 29 277 0.0 2.0 0.00 0.00 0.00 89 1017.8
20230131103929 29 276 0.0 2.0 0.00 0.00 0.00 89 1017.8
20230131103919 29 277 0.0 2.0 0.00 0.00 0.00 89 1017.8
20230131103550 29 277 0.0 2.0 0.00 0.00 0.00 89 1017.8
20230131103510 29 290 0.0 2.0 0.00 0.00 0.00 89 1017.8
20230131103459 29 287 0.0 2.0 0.00 0.00 0.00 89 1017.8
20230131103244 29 278 0.0 1.0 0.00 0.00 0.00 89 1017.8
20230131103146 29 278 0.0 1.0 0.00 0.00 0.00 89 1017.7
20230131103044 29 281 0.0 0.0 0.00 0.00 0.00 89 1017.5
20230131102944 29 281 0.0 1.0 0.00 0.00 0.00 89 1017.5
20230131102842 29 281 0.0 1.0 0.00 0.00 0.00 89 1017.6
20230131102743 29 281 0.0 1.0 0.00 0.00 0.00 89 1017.6
20230131102641 29 281 0.0 1.0 0.00 0.00 0.00 89 1017.7
20230131102541 29 281 0.0 1.0 0.00 0.00 0.00 89 1017.6
20230131102438 29 281 0.0 1.0 0.00 0.00 0.00 89 1017.6
20230131102335 29 281 0.0 1.0 0.00 0.00 0.00 89 1017.6
20230131102237 29 281 0.0 2.0 0.00 0.00 0.00 89 1017.7
20230131102135 29 281 0.0 2.0 0.00 0.00 0.00 89 1017.6
20230131102034 29 281 0.0 2.0 0.00 0.00 0.00 89 1017.6
20230131101928 29 281 0.0 2.0 0.00 0.00 0.00 89 1017.7
20230131101850 29 271 0.0 2.0 0.00 0.00 0.00 89 1017.6
20230131101841 29 271 0.0 2.0 0.00 0.00 0.00 89 1017.6
20230131101626 29 271 0.0 2.0 0.00 0.00 0.00 89 1017.5
20230131101528 29 271 0.0 2.0 0.00 0.00 0.00 89 1017.5
20230131101427 29 271 0.0 2.0 0.00 0.00 0.00 90 1017.6
20230131101324 29 270 0.0 2.0 0.00 0.00 0.00 90 1017.6
20230131101225 29 267 0.0 2.0 0.00 0.00 0.00 90 1017.6
20230131101123 29 269 0.0 2.0 0.00 0.00 0.00 90 1017.5
20230131101022 29 82 0.0 1.0 0.00 0.00 0.00 90 1017.5
20230131100940 29 82 0.0 1.0 0.00 0.00 0.00 90 1017.4
20230131100929 29 82 0.0 1.0 0.00 0.00 0.00 90 1017.5
20230131100757 29 291 0.0 1.0 0.00 0.00 0.00 90 1017.5
20230131100747 29 82 0.0 1.0 0.00 0.00 0.00 90 1017.4
20230131100733 29 84 0.0 1.0 0.00 0.00 0.00 90 1017.5
20230131100408 29 290 0.0 1.0 0.00 0.00 0.00 90 1017.3
20230131100309 29 291 0.0 1.0 0.00 0.00 0.00 90 1017.3
20230131100207 29 290 0.0 1.0 0.00 0.00 0.00 90 1017.2
20230131100110 29 291 0.0 1.0 0.00 0.00 0.00 90 1017.3
20230131100008 29 290 0.0 1.0 0.00 0.00 0.00 90 1017.3
20230131095902 29 291 0.0 1.0 0.00 0.00 0.00 90 1017.3
20230131095802 29 290 0.0 1.0 0.00 0.00 0.00 90 1017.4
20230131095701 29 290 0.0 0.0 0.00 0.00 0.00 90 1017.5
20230131095648 29 290 0.0 1.0 0.00 0.00 0.00 89 1017.4
20230131095644 29 291 0.0 1.0 0.00 0.00 0.00 89 1017.4
20230131095630 29 290 0.0 0.0 0.00 0.00 0.00 89 1017.4
20230131095513 29 290 0.0 1.0 0.00 0.00 0.00 89 1017.4
20230131095256 29 291 0.0 1.0 0.00 0.00 0.00 89 1017.3
20230131095157 29 291 0.0 1.0 0.00 0.00 0.00 89 1017.2
20230131095057 30 291 0.0 1.0 0.00 0.00 0.00 89 1017.2
20230131094958 30 290 0.0 1.0 0.00 0.00 0.00 89 1017.3
20230131094926 30 290 0.0 4.0 0.00 0.00 0.00 89 1017.3
20230131094917 30 290 0.0 4.0 0.00 0.00 0.00 89 1017.3
20230131094758 30 290 0.0 4.0 0.00 0.00 0.00 89 1017.3
20230131094751 30 290 0.0 4.0 0.00 0.00 0.00 89 1017.4
20230131094737 30 290 0.0 4.0 0.00 0.00 0.00 89 1017.3
20230131094606 30 291 0.0 4.0 0.00 0.00 0.00 89 1017.3
20230131094246 30 290 0.0 4.0 0.00 0.00 0.00 89 1017.2
20230131094144 30 291 0.0 4.0 0.00 0.00 0.00 89 1017.2
20230131094044 30 291 0.0 4.0 0.00 0.00 0.00 89 1017.2
20230131094016 30 278 0.0 7.0 0.00 0.00 0.00 89 1017.3
20230131094001 30 290 1.0 4.0 0.00 0.00 0.00 89 1017.3
20230131093742 30 278 0.0 7.0 0.00 0.00 0.00 89 1017.3
20230131093644 30 300 0.0 7.0 0.00 0.00 0.00 89 1017.3
20230131093607 30 305 0.0 7.0 0.00 0.00 0.00 89 1017.4
20230131093558 30 302 0.0 7.0 0.00 0.00 0.00 89 1017.4
20230131093438 30 305 0.0 7.0 0.00 0.00 0.00 89 1017.4
20230131093334 30 305 1.0 7.0 0.00 0.00 0.00 89 1017.3
20230131093235 30 291 0.0 7.0 0.00 0.00 0.00 89 1017.4
20230131093154 30 266 1.0 7.0 0.00 0.00 0.00 89 1017.4
20230131093146 30 56 1.0 7.0 0.00 0.00 0.00 89 1017.4
20230131092933 30 262 1.0 7.0 0.00 0.00 0.00 89 1017.4
20230131092825 30 32 1.0 5.0 0.00 0.00 0.00 89 1017.3
20230131092752 30 280 1.0 5.0 0.00 0.00 0.00 89 1017.3
20230131092742 30 283 1.0 5.0 0.00 0.00 0.00 89 1017.3
20230131092527 30 291 1.0 5.0 0.00 0.00 0.00 89 1017.2
20230131092454 30 285 1.0 5.0 0.00 0.00 0.00 89 1017.2
20230131092440 30 291 1.0 5.0 0.00 0.00 0.00 89 1017.2
20230131092225 30 300 1.0 5.0 0.00 0.00 0.00 89 1017.1
20230131092152 31 291 0.0 5.0 0.00 0.00 0.00 90 1017.2
20230131092122 31 302 1.0 5.0 0.00 0.00 0.00 90 1017.1
20230131092042 31 294 1.0 5.0 0.00 0.00 0.00 90 1017.1
20230131092026 31 291 0.0 5.0 0.00 0.00 0.00 90 1017.2
20230131091814 31 283 0.0 1.0 0.00 0.00 0.00 90 1017.2
20230131091715 31 285 0.0 1.0 0.00 0.00 0.00 90 1017.1
20230131091616 31 285 0.0 1.0 0.00 0.00 0.00 90 1017.1
20230131091514 31 285 0.0 1.0 0.00 0.00 0.00 90 1017.1
20230131091445 31 285 0.0 1.0 0.00 0.00 0.00 90 1017.1
20230131091431 31 285 0.0 1.0 0.00 0.00 0.00 90 1017.1
20230131091212 31 285 0.0 1.0 0.00 0.00 0.00 90 1017.1
20230131091150 31 285 0.0 1.0 0.00 0.00 0.00 90 1017.0
20230131091029 31 285 0.0 1.0 0.00 0.00 0.00 90 1017.0
20230131090910 31 285 0.0 1.0 0.00 0.00 0.00 90 1017.1
20230131090809 31 285 0.0 1.0 0.00 0.00 0.00 90 1017.1
20230131090707 31 285 0.0 1.0 0.00 0.00 0.00 90 1017.1
20230131090605 31 285 0.0 1.0 0.00 0.00 0.00 90 1017.1
20230131090504 31 285 0.0 1.0 0.00 0.00 0.00 90 1017.0
20230131090402 31 285 0.0 1.0 0.00 0.00 0.00 90 1017.1
20230131090300 31 285 0.0 1.0 0.00 0.00 0.00 90 1017.0
20230131090216 31 285 0.0 1.0 0.00 0.00 0.00 90 1017.1
20230131090212 31 285 0.0 1.0 0.00 0.00 0.00 90 1017.0
20230131090202 31 285 0.0 1.0 0.00 0.00 0.00 90 1017.0
20230131090149 31 285 0.0 1.0 0.00 0.00 0.00 90 1017.0
20230131085858 31 285 0.0 1.0 0.00 0.00 0.00 90 1017.0
20230131085758 31 285 0.0 1.0 0.00 0.00 0.00 90 1017.0
20230131085717 31 285 0.0 1.0 0.00 0.00 0.00 90 1017.0
20230131085708 31 285 0.0 1.0 0.00 0.00 0.00 90 1017.0
20230131085452 31 285 0.0 1.0 0.00 0.00 0.00 90 1017.0
20230131085352 31 285 0.0 1.0 0.00 0.00 0.00 90 1016.9
20230131085246 31 285 0.0 1.0 0.00 0.00 0.00 90 1016.9
20230131085146 31 285 0.0 1.0 0.00 0.00 0.00 90 1016.9
20230131085045 32 285 0.0 1.0 0.00 0.00 0.00 90 1016.9
20230131084946 32 285 0.0 1.0 0.00 0.00 0.00 90 1016.9
20230131084845 32 285 0.0 1.0 0.00 0.00 0.00 90 1016.9
20230131084802 32 285 0.0 1.0 0.00 0.00 0.00 90 1016.9
20230131084752 32 285 0.0 1.0 0.00 0.00 0.00 90 1016.9
20230131084538 32 285 0.0 1.0 0.00 0.00 0.00 90 1017.0
20230131084438 32 285 0.0 2.0 0.00 0.00 0.00 90 1016.9
20230131084339 32 285 0.0 2.0 0.00 0.00 0.00 90 1016.9
20230131084307 32 285 0.0 2.0 0.00 0.00 0.00 90 1016.9
20230131084303 32 13 0.0 2.0 0.00 0.00 0.00 90 1016.9
20230131084253 32 285 0.0 2.0 0.00 0.00 0.00 90 1016.9
20230131084126 32 284 0.0 2.0 0.00 0.00 0.00 90 1016.9
20230131084004 32 314 0.0 2.0 0.00 0.00 0.00 90 1016.9
20230131083949 32 13 0.0 2.0 0.00 0.00 0.00 90 1016.9
20230131083652 32 291 0.0 2.0 0.00 0.00 0.00 90 1016.9
20230131083643 32 13 0.0 2.0 0.00 0.00 0.00 90 1017.0
20230131083428 32 18 0.0 1.0 0.00 0.00 0.00 90 1016.9
20230131083328 32 19 0.0 2.0 0.00 0.00 0.00 90 1016.8
20230131083222 32 20 0.0 2.0 0.00 0.00 0.00 90 1016.8
20230131083120 32 20 0.0 2.0 0.00 0.00 0.00 90 1016.7
20230131083020 32 105 0.0 2.0 0.00 0.00 0.00 90 1016.7
20230131082920 32 106 0.0 2.0 0.00 0.00 0.00 90 1016.7
20230131082822 32 300 0.0 2.0 0.00 0.00 0.00 90 1016.7
20230131082718 32 300 0.0 2.0 0.00 0.00 0.00 90 1016.7
20230131082630 32 300 0.0 1.0 0.00 0.00 0.00 89 1016.8
20230131082618 32 300 0.0 2.0 0.00 0.00 0.00 90 1016.8
20230131082542 32 300 0.0 4.0 0.00 0.00 0.00 89 1016.7
20230131082534 32 300 0.0 2.0 0.00 0.00 0.00 90 1016.8
20230131082518 32 300 0.0 2.0 0.00 0.00 0.00 89 1016.8
20230131082504 32 300 0.0 1.0 0.00 0.00 0.00 89 1016.8
20230131082237 32 300 0.0 4.0 0.00 0.00 0.00 89 1016.8
20230131082114 32 300 0.0 4.0 0.00 0.00 0.00 89 1016.8
20230131082057 32 300 0.0 4.0 0.00 0.00 0.00 89 1016.8
20230131081927 32 300 0.0 4.0 0.00 0.00 0.00 89 1016.7
20230131081602 32 299 0.0 4.0 0.00 0.00 0.00 89 1016.7
20230131081502 32 300 0.0 4.0 0.00 0.00 0.00 89 1016.7
20230131081403 32 49 0.0 4.0 0.00 0.00 0.00 90 1016.7
20230131081302 32 296 0.0 4.0 0.00 0.00 0.00 90 1016.7
20230131081203 32 86 0.0 1.0 0.00 0.00 0.00 90 1016.7
20230131081101 32 86 0.0 1.0 0.00 0.00 0.00 90 1016.6
20230131081023 32 86 0.0 1.0 0.00 0.00 0.00 90 1016.7
20230131081015 32 86 0.0 1.0 0.00 0.00 0.00 90 1016.6
20230131080758 32 347 0.0 1.0 0.00 0.00 0.00 90 1016.6
20230131080652 32 347 0.0 1.0 0.00 0.00 0.00 90 1016.7
20230131080552 32 308 0.0 1.0 0.00 0.00 0.00 90 1016.7
20230131080453 32 307 0.0 1.0 0.00 0.00 0.00 90 1016.7
20230131080352 32 308 0.0 1.0 0.00 0.00 0.00 90 1016.8
20230131080251 32 307 0.0 1.0 0.00 0.00 0.00 90 1016.8
20230131080146 32 308 0.0 1.0 0.00 0.00 0.00 90 1016.8
20230131080046 32 307 0.0 1.0 0.00 0.00 0.00 90 1016.7
20230131080025 32 307 0.0 1.0 0.00 0.00 0.00 90 1016.7
20230131075943 32 308 0.0 1.0 0.00 0.00 0.00 90 1016.7
20230131075904 32 308 0.0 1.0 0.00 0.00 0.00 90 1016.7
20230131075745 32 308 0.0 1.0 0.00 0.00 0.00 90 1016.7
20230131075638 32 308 0.0 1.0 0.00 0.00 0.00 90 1016.7
20230131075539 32 307 0.0 1.0 0.00 0.00 0.00 90 1016.6
20230131075437 32 308 0.0 1.0 0.00 0.00 0.00 90 1016.6
20230131075338 32 308 0.0 1.0 0.00 0.00 0.00 90 1016.6
20230131075240 32 307 0.0 1.0 0.00 0.00 0.00 90 1016.7
20230131075136 32 307 0.0 1.0 0.00 0.00 0.00 90 1016.6
20230131075103 32 307 0.0 1.0 0.00 0.00 0.00 90 1016.6
20230131075052 32 307 0.0 1.0 0.00 0.00 0.00 90 1016.6
20230131074835 32 310 0.0 1.0 0.00 0.00 0.00 90 1016.5
20230131074750 32 311 0.0 1.0 0.00 0.00 0.00 90 1016.6
20230131074732 32 310 0.0 2.0 0.00 0.00 0.00 90 1016.6
20230131074649 32 307 0.0 2.0 0.00 0.00 0.00 90 1016.7
20230131074640 32 307 0.0 2.0 0.00 0.00 0.00 90 1016.6
20230131074448 32 307 0.0 2.0 0.00 0.00 0.00 90 1016.7
20230131074440 32 308 0.0 2.0 0.00 0.00 0.00 90 1016.7
20230131074257 32 308 0.0 2.0 0.00 0.00 0.00 90 1016.8
20230131074249 32 307 0.0 2.0 0.00 0.00 0.00 90 1016.8
20230131074239 32 308 0.0 2.0 0.00 0.00 0.00 90 1016.8
20230131074023 32 307 0.0 2.0 0.00 0.00 0.00 90 1016.8
20230131073924 32 308 0.0 2.0 0.00 0.00 0.00 90 1016.8
20230131073825 32 307 0.0 2.0 0.00 0.00 0.00 90 1016.7
20230131073746 32 308 0.0 2.0 0.00 0.00 0.00 90 1016.7
20230131073725 32 308 0.0 1.0 0.00 0.00 0.00 90 1016.7
20230131073616 32 307 0.0 1.0 0.00 0.00 0.00 90 1016.6
20230131073515 32 307 0.0 1.0 0.00 0.00 0.00 90 1016.6
20230131073414 32 307 0.0 1.0 0.00 0.00 0.00 90 1016.5
20230131073316 32 307 0.0 1.0 0.00 0.00 0.00 90 1016.5
20230131073248 32 308 0.0 1.0 0.00 0.00 0.00 90 1016.5
20230131073234 32 308 0.0 1.0 0.00 0.00 0.00 90 1016.6
20230131073223 32 307 0.0 1.0 0.00 0.00 0.00 90 1016.5
20230131073008 32 308 0.0 1.0 0.00 0.00 0.00 90 1016.6
20230131072908 32 308 0.0 1.0 0.00 0.00 0.00 90 1016.6
20230131072808 32 307 0.0 1.0 0.00 0.00 0.00 90 1016.6
20230131072744 32 308 0.0 1.0 0.00 0.00 0.00 90 1016.6
20230131072709 32 335 0.0 1.0 0.00 0.00 0.00 90 1016.6
20230131072624 32 335 0.0 1.0 0.00 0.00 0.00 90 1016.5
20230131072616 32 335 0.0 1.0 0.00 0.00 0.00 90 1016.5
20230131072453 32 334 0.0 1.0 0.00 0.00 0.00 90 1016.5
20230131072446 32 333 0.0 1.0 0.00 0.00 0.00 90 1016.5
20230131072436 32 333 0.0 1.0 0.00 0.00 0.00 90 1016.5
20230131072313 32 333 0.0 1.0 0.00 0.00 0.00 90 1016.5
20230131072105 32 333 0.0 1.0 0.00 0.00 0.00 90 1016.5
20230131072001 32 333 0.0 1.0 0.00 0.00 0.00 90 1016.6
20230131071902 32 333 0.0 1.0 0.00 0.00 0.00 90 1016.6
20230131071742 32 336 0.0 1.0 0.00 0.00 0.00 90 1016.6
20230131071657 32 336 0.0 1.0 0.00 0.00 0.00 90 1016.5
20230131071614 32 336 0.0 1.0 0.00 0.00 0.00 90 1016.5
20230131071606 32 336 0.0 1.0 0.00 0.00 0.00 90 1016.5
20230131071351 32 336 0.0 1.0 0.00 0.00 0.00 90 1016.5
20230131071250 32 336 0.0 1.0 0.00 0.00 0.00 90 1016.5
20230131071239 32 335 0.0 1.0 0.00 0.00 0.00 90 1016.5
20230131071150 32 325 0.0 1.0 0.00 0.00 0.00 90 1016.6
20230131071111 32 327 0.0 1.0 0.00 0.00 0.00 90 1016.6
20230131071101 32 325 0.0 1.0 0.00 0.00 0.00 90 1016.6
20230131070847 32 328 0.0 1.0 0.00 0.00 0.00 90 1016.5
20230131070749 32 328 0.0 1.0 0.00 0.00 0.00 90 1016.5
20230131070739 32 327 0.0 1.0 0.00 0.00 0.00 90 1016.5
20230131070653 32 328 0.0 1.0 0.00 0.00 0.00 90 1016.4
20230131070638 32 328 0.0 1.0 0.00 0.00 0.00 90 1016.4
20230131070524 32 330 0.0 1.0 0.00 0.00 0.00 90 1016.4
20230131070513 32 330 0.0 1.0 0.00 0.00 0.00 90 1016.3
20230131070240 32 330 0.0 1.0 0.00 0.00 0.00 90 1016.4
20230131070210 32 330 0.0 1.0 0.00 0.00 0.00 90 1016.4
20230131070047 32 330 0.0 1.0 0.00 0.00 0.00 90 1016.5
20230131065832 32 330 0.0 1.0 0.00 0.00 0.00 90 1016.5
20230131065731 32 330 0.0 1.0 0.00 0.00 0.00 91 1016.5
20230131065633 32 54 0.0 1.0 0.00 0.00 0.00 91 1016.4
20230131065532 32 54 0.0 1.0 0.00 0.00 0.00 91 1016.4
20230131065507 32 313 0.0 1.0 0.00 0.00 0.00 91 1016.3
20230131065431 32 54 0.0 1.0 0.00 0.00 0.00 91 1016.4
20230131065351 32 55 0.0 1.0 0.00 0.00 0.00 91 1016.4
20230131065228 32 314 0.0 1.0 0.00 0.00 0.00 91 1016.3
20230131065126 32 313 0.0 1.0 0.00 0.00 0.00 91 1016.3
20230131065021 32 313 0.0 1.0 0.00 0.00 0.00 91 1016.3
20230131064921 32 291 0.0 0.0 0.00 0.00 0.00 90 1016.3
20230131064823 32 291 0.0 0.0 0.00 0.00 0.00 90 1016.3
20230131064721 32 290 0.0 0.0 0.00 0.00 0.00 90 1016.4
20230131064620 32 291 0.0 0.0 0.00 0.00 0.00 90 1016.3
20230131064515 32 291 0.0 0.0 0.00 0.00 0.00 90 1016.3
20230131064414 32 290 0.0 0.0 0.00 0.00 0.00 90 1016.3
20230131064314 32 290 0.0 0.0 0.00 0.00 0.00 90 1016.3
20230131064214 32 291 0.0 0.0 0.00 0.00 0.00 90 1016.1
20230131064114 32 291 0.0 1.0 0.00 0.00 0.00 90 1016.1
20230131064015 32 290 0.0 1.0 0.00 0.00 0.00 90 1016.1
20230131063912 32 291 0.0 1.0 0.00 0.00 0.00 90 1016.1
20230131063814 32 291 0.0 1.0 0.00 0.00 0.00 90 1016.1
20230131063731 32 291 0.0 1.0 0.00 0.00 0.00 90 1016.1
20230131063710 32 290 0.0 1.0 0.00 0.00 0.00 90 1016.1
20230131063608 32 290 0.0 1.0 0.00 0.00 0.00 90 1016.1
20230131063542 32 290 0.0 1.0 0.00 0.00 0.00 90 1016.1
20230131063504 32 291 0.0 1.0 0.00 0.00 0.00 90 1016.1
20230131063448 32 291 0.0 1.0 0.00 0.00 0.00 90 1016.1
20230131063438 32 291 0.0 1.0 0.00 0.00 0.00 90 1016.1
20230131063423 32 290 0.0 1.0 0.00 0.00 0.00 90 1016.1
20230131063102 32 290 0.0 0.0 0.00 0.00 0.00 90 1016.0
20230131062956 32 290 0.0 0.0 0.00 0.00 0.00 90 1016.0
20230131062856 32 291 0.0 0.0 0.00 0.00 0.00 90 1015.9
20230131062729 33 291 0.0 0.0 0.00 0.00 0.00 90 1015.9
20230131062657 32 291 0.0 0.0 0.00 0.00 0.00 90 1015.9
20230131062555 32 291 0.0 0.0 0.00 0.00 0.00 90 1015.8
20230131062448 33 291 0.0 0.0 0.00 0.00 0.00 90 1015.9
20230131062348 33 290 0.0 0.0 0.00 0.00 0.00 90 1015.9
20230131062248 33 290 0.0 0.0 0.00 0.00 0.00 90 1016.0
20230131062231 33 291 0.0 0.0 0.00 0.00 0.00 90 1016.0
20230131062150 33 290 0.0 0.0 0.00 0.00 0.00 90 1016.0
20230131062047 33 291 0.0 1.0 0.00 0.00 0.00 90 1016.0
20230131061942 33 291 0.0 1.0 0.00 0.00 0.00 90 1015.9
20230131061907 33 290 0.0 1.0 0.00 0.00 0.00 90 1015.9
20230131061858 33 291 0.0 1.0 0.00 0.00 0.00 90 1015.8
20230131061727 33 290 0.0 1.0 0.00 0.00 0.00 90 1015.9
20230131061642 33 291 0.0 1.0 0.00 0.00 0.00 90 1016.0
20230131061543 33 290 0.0 1.0 0.00 0.00 0.00 90 1016.0
20230131061459 33 290 0.0 1.0 0.00 0.00 0.00 90 1015.9
20230131061441 33 291 0.0 1.0 0.00 0.00 0.00 90 1016.0
20230131061350 33 290 0.0 1.0 0.00 0.00 0.00 90 1015.9
20230131061337 33 291 0.0 1.0 0.00 0.00 0.00 90 1015.9
20230131061138 33 291 0.0 1.0 0.00 0.00 0.00 90 1016.0
20230131061038 33 290 0.0 1.0 0.00 0.00 0.00 90 1016.0
20230131060937 33 290 0.0 1.0 0.00 0.00 0.00 90 1016.0
20230131060836 33 297 0.0 1.0 0.00 0.00 0.00 90 1016.1
20230131060725 33 296 0.0 1.0 0.00 0.00 0.00 90 1016.1
20230131060633 33 296 0.0 1.0 0.00 0.00 0.00 90 1016.1
20230131060551 33 296 0.0 1.0 0.00 0.00 0.00 90 1016.0
20230131060542 33 296 0.0 1.0 0.00 0.00 0.00 90 1016.0
20230131060326 33 297 0.0 1.0 0.00 0.00 0.00 90 1016.0
20230131060222 33 297 0.0 1.0 0.00 0.00 0.00 90 1015.9
20230131060125 33 296 0.0 1.0 0.00 0.00 0.00 90 1016.0
20230131060044 33 296 0.0 2.0 0.00 0.00 0.00 90 1015.9
20230131060035 33 296 0.0 1.0 0.00 0.00 0.00 90 1016.0
20230131055819 33 296 0.0 2.0 0.00 0.00 0.00 90 1015.9
20230131055720 33 296 0.0 2.0 0.00 0.00 0.00 90 1015.9
20230131055618 33 296 0.0 2.0 0.00 0.00 0.00 90 1016.0
20230131055516 33 297 0.0 2.0 0.00 0.00 0.00 90 1016.0
20230131055413 33 296 0.0 2.0 0.00 0.00 0.00 90 1016.0
20230131055311 33 297 0.0 2.0 0.00 0.00 0.00 90 1016.0
20230131055209 33 296 0.0 2.0 0.00 0.00 0.00 90 1016.0
20230131055113 33 296 0.0 2.0 0.00 0.00 0.00 90 1016.1
20230131055012 33 297 0.0 2.0 0.00 0.00 0.00 90 1016.1
20230131055002 33 297 0.0 2.0 0.00 0.00 0.00 90 1016.0
20230131054955 33 296 0.0 2.0 0.00 0.00 0.00 90 1016.1
20230131054943 33 297 0.0 2.0 0.00 0.00 0.00 90 1016.1
20230131054817 33 297 0.0 2.0 0.00 0.00 0.00 90 1016.1
20230131054607 33 296 0.0 2.0 0.00 0.00 0.00 90 1016.0
20230131054503 33 297 0.0 2.0 0.00 0.00 0.00 90 1016.0
20230131054402 33 296 0.0 2.0 0.00 0.00 0.00 90 1016.0
20230131054332 33 290 0.0 2.0 0.00 0.00 0.00 90 1016.1
20230131054323 33 297 0.0 2.0 0.00 0.00 0.00 90 1015.9
20230131054311 33 290 0.0 2.0 0.00 0.00 0.00 90 1016.1
20230131054101 33 290 0.0 2.0 0.00 0.00 0.00 90 1016.2
20230131054023 33 291 0.0 1.0 0.00 0.00 0.00 90 1016.3
20230131054016 33 290 0.0 1.0 0.00 0.00 0.00 90 1016.1
20230131054008 33 291 0.0 2.0 0.00 0.00 0.00 90 1016.3
20230131053834 33 290 0.0 1.0 0.00 0.00 0.00 90 1016.1
20230131053718 33 290 0.0 1.0 0.00 0.00 0.00 90 1016.0
20230131053707 33 290 0.0 1.0 0.00 0.00 0.00 90 1016.0
20230131053514 33 290 0.0 1.0 0.00 0.00 0.00 90 1015.9
20230131053506 33 290 0.0 1.0 0.00 0.00 0.00 90 1015.9
20230131053341 33 290 0.0 1.0 0.00 0.00 0.00 90 1015.9
20230131053334 33 291 0.0 1.0 0.00 0.00 0.00 90 1016.0
20230131053312 33 290 0.0 1.0 0.00 0.00 0.00 90 1015.9
20230131053009 33 291 0.0 0.0 0.00 0.00 0.00 90 1015.9
20230131053001 33 291 0.0 0.0 0.00 0.00 0.00 90 1015.9
20230131052739 33 290 0.0 0.0 0.00 0.00 0.00 90 1015.9
20230131052718 33 291 0.0 0.0 0.00 0.00 0.00 90 1015.9
20230131052641 33 291 0.0 1.0 0.00 0.00 0.00 90 1015.9
20230131052540 33 291 0.0 1.0 0.00 0.00 0.00 90 1016.0
20230131052440 33 290 0.0 1.0 0.00 0.00 0.00 90 1016.0
20230131052335 33 290 0.0 1.0 0.00 0.00 0.00 90 1016.0
20230131052235 33 291 0.0 1.0 0.00 0.00 0.00 90 1016.0
20230131052216 33 290 0.0 1.0 0.00 0.00 0.00 90 1016.0
20230131052134 33 291 0.0 1.0 0.00 0.00 0.00 90 1016.1
20230131052035 33 290 0.0 1.0 0.00 0.00 0.00 90 1016.2
20230131051935 33 291 0.0 1.0 0.00 0.00 0.00 90 1016.2
20230131051859 33 291 0.0 1.0 0.00 0.00 0.00 90 1016.1
20230131051848 33 290 0.0 1.0 0.00 0.00 0.00 90 1016.2
20230131051716 33 291 0.0 1.0 0.00 0.00 0.00 90 1016.1
20230131051635 33 290 0.0 0.0 0.00 0.00 0.00 90 1016.1
20230131051534 33 291 0.0 0.0 0.00 0.00 0.00 90 1016.1
20230131051431 33 291 0.0 1.0 0.00 0.00 0.00 90 1016.1
20230131051412 33 291 0.0 1.0 0.00 0.00 0.00 90 1016.1
20230131051241 33 291 0.0 1.0 0.00 0.00 0.00 90 1016.1
20230131051030 33 291 0.0 1.0 0.00 0.00 0.00 90 1016.1
20230131050931 33 290 0.0 1.0 0.00 0.00 0.00 90 1016.1
20230131050918 33 291 0.0 1.0 0.00 0.00 0.00 90 1016.2
20230131050913 33 291 0.0 1.0 0.00 0.00 0.00 90 1016.2
20230131050903 33 291 0.0 1.0 0.00 0.00 0.00 90 1016.1
20230131050741 33 291 0.0 1.0 0.00 0.00 0.00 90 1016.2
20230131050553 33 290 0.0 1.0 0.00 0.00 0.00 90 1016.1
20230131050543 33 291 0.0 1.0 0.00 0.00 0.00 90 1016.2
20230131050330 33 291 0.0 1.0 0.00 0.00 0.00 90 1016.1
20230131050227 33 291 0.0 1.0 0.00 0.00 0.00 90 1016.1
20230131050216 33 290 0.0 1.0 0.00 0.00 0.00 90 1016.1
20230131050127 33 291 0.0 1.0 0.00 0.00 0.00 90 1016.2
20230131050045 33 291 0.0 1.0 0.00 0.00 0.00 90 1016.3
20230131050037 33 290 0.0 1.0 0.00 0.00 0.00 90 1016.2
20230131050021 33 291 0.0 1.0 0.00 0.00 0.00 90 1016.3
20230131045855 33 291 0.0 1.0 0.00 0.00 0.00 90 1016.2
20230131045841 33 290 0.0 1.0 0.00 0.00 0.00 90 1016.3
20230131045520 33 290 0.0 1.0 0.00 0.00 0.00 90 1016.3
20230131045507 33 290 0.0 1.0 0.00 0.00 0.00 90 1016.3
20230131045502 33 291 0.0 1.0 0.00 0.00 0.00 90 1016.2
20230131045448 33 291 0.0 1.0 0.00 0.00 0.00 90 1016.3
20230131045320 33 291 0.0 1.0 0.00 0.00 0.00 90 1016.2
20230131045119 33 291 0.0 1.0 0.00 0.00 0.00 90 1016.3
20230131045042 33 290 0.0 1.0 0.00 0.00 0.00 90 1016.4
20230131045034 33 290 0.0 1.0 0.00 0.00 0.00 90 1016.2
20230131044821 33 290 0.0 1.0 0.00 0.00 0.00 90 1016.3
20230131044746 33 294 0.0 1.0 0.00 0.00 0.00 90 1016.3
20230131044729 33 290 0.0 1.0 0.00 0.00 0.00 90 1016.3
20230131044518 33 294 0.0 1.0 0.00 0.00 0.00 90 1016.4
20230131044416 33 293 0.0 0.0 0.00 0.00 0.00 90 1016.4
20230131044314 33 294 0.0 1.0 0.00 0.00 0.00 90 1016.4
20230131044217 33 294 0.0 1.0 0.00 0.00 0.00 90 1016.4
20230131044115 33 294 0.0 1.0 0.00 0.00 0.00 90 1016.4
20230131044009 33 294 0.0 1.0 0.00 0.00 0.00 90 1016.4
20230131043910 33 293 0.0 1.0 0.00 0.00 0.00 90 1016.5
20230131043808 33 294 0.0 1.0 0.00 0.00 0.00 90 1016.5
20230131043709 33 294 0.0 1.0 0.00 0.00 0.00 90 1016.5
20230131043607 33 294 0.0 1.0 0.00 0.00 0.00 90 1016.5
20230131043555 33 294 0.0 0.0 0.00 0.00 0.00 90 1016.5
20230131043517 33 294 0.0 0.0 0.00 0.00 0.00 90 1016.5
20230131043510 33 294 0.0 1.0 0.00 0.00 0.00 90 1016.6
20230131043502 33 294 0.0 0.0 0.00 0.00 0.00 90 1016.5
20230131043450 33 294 0.0 1.0 0.00 0.00 0.00 90 1016.6
20230131043435 33 294 0.0 0.0 0.00 0.00 0.00 90 1016.6
20230131043001 33 294 0.0 0.0 0.00 0.00 0.00 90 1016.6
20230131042913 33 294 0.0 0.0 0.00 0.00 0.00 90 1016.6
20230131042757 33 294 0.0 0.0 0.00 0.00 0.00 90 1016.7
20230131042712 33 294 0.0 0.0 0.00 0.00 0.00 90 1016.6
20230131042659 33 294 0.0 0.0 0.00 0.00 0.00 90 1016.6
20230131042613 33 294 0.0 1.0 0.00 0.00 0.00 90 1016.6
20230131042606 33 294 0.0 0.0 0.00 0.00 0.00 90 1016.6
20230131042350 33 294 0.0 4.0 0.00 0.00 0.00 90 1016.6
20230131042250 33 294 0.0 4.0 0.00 0.00 0.00 90 1016.6
20230131042209 33 294 0.0 4.0 0.00 0.00 0.00 90 1016.6
20230131042150 33 294 0.0 4.0 0.00 0.00 0.00 90 1016.4
20230131042047 33 294 0.0 4.0 0.00 0.00 0.00 90 1016.4
20230131041946 33 294 0.0 4.0 0.00 0.00 0.00 90 1016.4
20230131041848 33 294 0.0 4.0 0.00 0.00 0.00 90 1016.5
20230131041747 33 294 0.0 4.0 0.00 0.00 0.00 90 1016.6
20230131041709 33 294 0.0 4.0 0.00 0.00 0.00 90 1016.6
20230131041647 33 294 0.0 4.0 0.00 0.00 0.00 90 1016.7
20230131041546 33 294 0.0 4.0 0.00 0.00 0.00 90 1016.8
20230131041445 33 294 0.0 4.0 0.00 0.00 0.00 90 1016.8
20230131041344 33 259 0.0 3.0 0.00 0.00 0.00 90 1016.8
20230131041242 33 259 0.0 3.0 0.00 0.00 0.00 90 1016.8
20230131041208 33 259 0.0 3.0 0.00 0.00 0.00 90 1016.8
20230131041143 33 259 0.0 3.0 0.00 0.00 0.00 90 1016.8
20230131041041 33 257 0.0 3.0 0.00 0.00 0.00 90 1016.8
20230131040938 33 257 0.0 3.0 0.00 0.00 0.00 90 1016.8
20230131040838 33 257 0.0 3.0 0.00 0.00 0.00 90 1016.8
20230131040706 33 257 0.0 3.0 0.00 0.00 0.00 90 1016.8
20230131040636 33 259 0.0 3.0 0.00 0.00 0.00 90 1016.8
20230131040533 33 259 0.0 3.0 0.00 0.00 0.00 90 1016.8
20230131040456 33 72 0.0 1.0 0.00 0.00 0.00 90 1016.8
20230131040447 33 259 0.0 3.0 0.00 0.00 0.00 90 1016.8
20230131040230 33 176 0.0 0.0 0.00 0.00 0.00 90 1016.8
20230131040204 33 176 0.0 1.0 0.00 0.00 0.00 90 1016.8
20230131040128 33 177 0.0 1.0 0.00 0.00 0.00 90 1016.9
20230131040028 33 177 0.0 1.0 0.00 0.00 0.00 90 1016.9
20230131035924 33 177 0.0 1.0 0.00 0.00 0.00 89 1016.9
20230131035824 33 177 0.0 1.0 0.00 0.00 0.00 89 1016.8
20230131035719 33 177 0.0 1.0 0.00 0.00 0.00 89 1016.8
20230131035703 33 178 0.0 1.0 0.00 0.00 0.00 89 1016.8
20230131035618 33 177 0.0 2.0 0.00 0.00 0.00 89 1016.8
20230131035541 34 174 0.0 2.0 0.00 0.00 0.00 89 1016.8
20230131035532 34 176 0.0 2.0 0.00 0.00 0.00 89 1016.8
20230131035316 34 175 0.0 2.0 0.00 0.00 0.00 89 1016.7
20230131035215 34 176 0.0 2.0 0.00 0.00 0.00 89 1016.7
20230131035202 34 294 0.0 2.0 0.00 0.00 0.00 89 1016.7
20230131035114 34 296 0.0 2.0 0.00 0.00 0.00 89 1016.7
20230131035011 34 297 0.0 2.0 0.00 0.00 0.00 89 1016.7
20230131034912 34 297 0.0 2.0 0.00 0.00 0.00 89 1016.7
20230131034812 34 296 0.0 2.0 0.00 0.00 0.00 89 1016.7
20230131034709 34 296 0.0 2.0 0.00 0.00 0.00 89 1016.7
20230131034701 34 297 0.0 2.0 0.00 0.00 0.00 89 1016.7
20230131034607 34 290 0.0 1.0 0.00 0.00 0.00 89 1016.8
20230131034506 34 290 0.0 1.0 0.00 0.00 0.00 89 1016.8
20230131034404 34 291 0.0 4.0 0.00 0.00 0.00 89 1016.8
20230131034305 34 290 0.0 5.0 0.00 0.00 0.00 88 1016.8
20230131034156 34 291 0.0 5.0 0.00 0.00 0.00 88 1016.9
20230131034101 34 291 0.0 5.0 0.00 0.00 0.00 88 1016.8
20230131034000 34 290 0.0 5.0 0.00 0.00 0.00 88 1016.9
20230131033929 34 302 0.0 5.0 0.00 0.00 0.00 88 1016.8
20230131033859 34 291 0.0 5.0 0.00 0.00 0.00 88 1016.9
20230131033814 34 300 0.0 5.0 0.00 0.00 0.00 88 1016.9
20230131033801 34 302 0.0 5.0 0.00 0.00 0.00 88 1016.8
20230131033554 34 302 0.0 5.0 0.00 0.00 0.00 88 1016.8
20230131033454 34 302 1.0 5.0 0.00 0.00 0.00 88 1016.7
20230131033354 34 296 0.0 5.0 0.00 0.00 0.00 88 1016.8
20230131033322 34 294 0.0 3.0 0.00 0.00 0.00 88 1016.9
20230131033313 34 291 0.0 3.0 0.00 0.00 0.00 88 1016.8
20230131033259 34 273 0.0 3.0 0.00 0.00 0.00 88 1016.9
20230131033051 34 294 1.0 5.0 0.00 0.00 0.00 88 1016.9
20230131032948 34 294 1.0 5.0 0.00 0.00 0.00 87 1016.9
20230131032847 35 294 0.0 5.0 0.00 0.00 0.00 87 1016.9
20230131032747 35 300 0.0 5.0 0.00 0.00 0.00 87 1016.9
20230131032646 35 283 0.0 5.0 0.00 0.00 0.00 87 1016.9
20230131032610 35 302 1.0 5.0 0.00 0.00 0.00 87 1016.9
20230131032558 35 283 0.0 5.0 0.00 0.00 0.00 87 1016.9
20230131032339 35 302 1.0 5.0 0.00 0.00 0.00 87 1016.9
20230131032239 35 302 0.0 5.0 0.00 0.00 0.00 87 1016.8
20230131032155 35 288 0.0 5.0 0.00 0.00 0.00 87 1016.9
20230131032137 35 294 0.0 5.0 0.00 0.00 0.00 87 1016.9
20230131032046 35 300 0.0 4.0 0.00 0.00 0.00 87 1016.8
20230131032029 35 299 0.0 4.0 0.00 0.00 0.00 87 1016.8
20230131031833 35 300 0.0 4.0 0.00 0.00 0.00 86 1016.8
20230131031801 35 300 0.0 4.0 0.00 0.00 0.00 86 1016.8
20230131031627 35 300 0.0 4.0 0.00 0.00 0.00 86 1016.8
20230131031526 35 300 0.0 4.0 0.00 0.00 0.00 86 1016.8
20230131031427 35 288 0.0 4.0 0.00 0.00 0.00 86 1016.8
20230131031326 35 300 0.0 3.0 0.00 0.00 0.00 86 1016.7
20230131031224 35 300 0.0 3.0 0.00 0.00 0.00 86 1016.7
20230131031144 35 299 0.0 4.0 0.00 0.00 0.00 86 1016.7
20230131031124 35 25 0.0 4.0 0.00 0.00 0.00 86 1016.7
20230131031039 35 296 0.0 4.0 0.00 0.00 0.00 85 1016.8
20230131031032 35 25 0.0 4.0 0.00 0.00 0.00 85 1016.7
20230131031015 35 26 0.0 4.0 0.00 0.00 0.00 85 1016.7
20230131030737 35 72 0.0 4.0 0.00 0.00 0.00 85 1016.7
20230131030727 35 72 0.0 4.0 0.00 0.00 0.00 85 1016.8
20230131030519 35 72 0.0 4.0 0.00 0.00 0.00 85 1016.7
20230131030416 35 72 0.0 4.0 0.00 0.00 0.00 85 1016.7
20230131030315 35 300 0.0 4.0 0.00 0.00 0.00 85 1016.8
20230131030213 35 300 0.0 4.0 0.00 0.00 0.00 85 1016.7
20230131030131 35 281 0.0 2.0 0.00 0.00 0.00 85 1016.7
20230131030113 35 20 0.0 2.0 0.00 0.00 0.00 85 1016.7
20230131030021 35 30 0.0 2.0 0.00 0.00 0.00 85 1016.7
20230131025912 35 285 0.0 2.0 0.00 0.00 0.00 85 1016.7
20230131025847 35 285 0.0 2.0 0.00 0.00 0.00 85 1016.7